<?xml version="1.0" encoding="UTF-8" standalone="no" ?>
<gpx xmlns="http://www.topografix.com/GPX/1/1" xmlns:xsi="http://www.w3.org/2001/XMLSchema-instance" xsi:schemaLocation="http://www.topografix.com/GPX/1/1 http://www.topografix.com/GPX/1/1/gpx.xsd" version="1.1" creator="VisuGPX - https://www.visugpx.com">
  <metadata>
    <name>Fienvillers : 11 MAI 2022 13:57</name>
  </metadata>
  <trk>
    <name><![CDATA[Fienvillers : 11 MAI 2022 13:57]]></name>
    <trkseg>
      <trkpt lat="50.11926" lon="2.23308">
        <ele>151.54</ele>
        <time>2022-05-11T11:57:32Z</time>
      </trkpt>
      <trkpt lat="50.11922" lon="2.23311">
        <ele>144.34</ele>
        <time>2022-05-11T11:57:46Z</time>
      </trkpt>
      <trkpt lat="50.11924" lon="2.23306">
        <ele>143.37</ele>
        <time>2022-05-11T11:58:02Z</time>
      </trkpt>
      <trkpt lat="50.11924" lon="2.23304">
        <ele>143.85</ele>
        <time>2022-05-11T11:58:17Z</time>
      </trkpt>
      <trkpt lat="50.11924" lon="2.23304">
        <ele>143.37</ele>
        <time>2022-05-11T11:58:42Z</time>
      </trkpt>
      <trkpt lat="50.11923" lon="2.23309">
        <ele>143.85</ele>
        <time>2022-05-11T11:58:55Z</time>
      </trkpt>
      <trkpt lat="50.11922" lon="2.2331">
        <ele>146.26</ele>
        <time>2022-05-11T11:59:08Z</time>
      </trkpt>
      <trkpt lat="50.11923" lon="2.23309">
        <ele>146.74</ele>
        <time>2022-05-11T11:59:29Z</time>
      </trkpt>
      <trkpt lat="50.11922" lon="2.23309">
        <ele>145.78</ele>
        <time>2022-05-11T11:59:53Z</time>
      </trkpt>
      <trkpt lat="50.11922" lon="2.23308">
        <ele>145.3</ele>
        <time>2022-05-11T12:00:17Z</time>
      </trkpt>
      <trkpt lat="50.11922" lon="2.23308">
        <ele>145.3</ele>
        <time>2022-05-11T12:00:40Z</time>
      </trkpt>
      <trkpt lat="50.11922" lon="2.23308">
        <ele>146.26</ele>
        <time>2022-05-11T12:01:10Z</time>
      </trkpt>
      <trkpt lat="50.11921" lon="2.23309">
        <ele>146.74</ele>
        <time>2022-05-11T12:01:33Z</time>
      </trkpt>
      <trkpt lat="50.11922" lon="2.2331">
        <ele>146.74</ele>
        <time>2022-05-11T12:01:57Z</time>
      </trkpt>
      <trkpt lat="50.11923" lon="2.2331">
        <ele>147.22</ele>
        <time>2022-05-11T12:02:20Z</time>
      </trkpt>
      <trkpt lat="50.11923" lon="2.2331">
        <ele>147.22</ele>
        <time>2022-05-11T12:02:33Z</time>
      </trkpt>
      <trkpt lat="50.11923" lon="2.23309">
        <ele>147.22</ele>
        <time>2022-05-11T12:02:59Z</time>
      </trkpt>
      <trkpt lat="50.11924" lon="2.23309">
        <ele>147.7</ele>
        <time>2022-05-11T12:03:26Z</time>
      </trkpt>
      <trkpt lat="50.11924" lon="2.23308">
        <ele>147.7</ele>
        <time>2022-05-11T12:03:42Z</time>
      </trkpt>
      <trkpt lat="50.11924" lon="2.23308">
        <ele>148.18</ele>
        <time>2022-05-11T12:04:05Z</time>
      </trkpt>
      <trkpt lat="50.11924" lon="2.23309">
        <ele>149.14</ele>
        <time>2022-05-11T12:04:32Z</time>
      </trkpt>
      <trkpt lat="50.11924" lon="2.2331">
        <ele>149.14</ele>
        <time>2022-05-11T12:04:57Z</time>
      </trkpt>
      <trkpt lat="50.11924" lon="2.23311">
        <ele>148.66</ele>
        <time>2022-05-11T12:05:20Z</time>
      </trkpt>
      <trkpt lat="50.11924" lon="2.23312">
        <ele>148.18</ele>
        <time>2022-05-11T12:05:38Z</time>
      </trkpt>
      <trkpt lat="50.11919" lon="2.23319">
        <ele>148.18</ele>
        <time>2022-05-11T12:05:49Z</time>
      </trkpt>
      <trkpt lat="50.11918" lon="2.23321">
        <ele>148.18</ele>
        <time>2022-05-11T12:05:50Z</time>
      </trkpt>
      <trkpt lat="50.11917" lon="2.23323">
        <ele>148.18</ele>
        <time>2022-05-11T12:05:52Z</time>
      </trkpt>
      <trkpt lat="50.11906" lon="2.23343">
        <ele>147.7</ele>
        <time>2022-05-11T12:06:07Z</time>
      </trkpt>
      <trkpt lat="50.11897" lon="2.23361">
        <ele>148.66</ele>
        <time>2022-05-11T12:06:20Z</time>
      </trkpt>
      <trkpt lat="50.11885" lon="2.23385">
        <ele>149.14</ele>
        <time>2022-05-11T12:06:35Z</time>
      </trkpt>
      <trkpt lat="50.11877" lon="2.23399">
        <ele>148.18</ele>
        <time>2022-05-11T12:06:45Z</time>
      </trkpt>
      <trkpt lat="50.11875" lon="2.23398">
        <ele>147.7</ele>
        <time>2022-05-11T12:06:47Z</time>
      </trkpt>
      <trkpt lat="50.11859" lon="2.23384">
        <ele>146.26</ele>
        <time>2022-05-11T12:07:00Z</time>
      </trkpt>
      <trkpt lat="50.11845" lon="2.2337">
        <ele>144.34</ele>
        <time>2022-05-11T12:07:13Z</time>
      </trkpt>
      <trkpt lat="50.11832" lon="2.23354">
        <ele>142.41</ele>
        <time>2022-05-11T12:07:26Z</time>
      </trkpt>
      <trkpt lat="50.11817" lon="2.23341">
        <ele>140.01</ele>
        <time>2022-05-11T12:07:40Z</time>
      </trkpt>
      <trkpt lat="50.11801" lon="2.2333">
        <ele>140.49</ele>
        <time>2022-05-11T12:07:53Z</time>
      </trkpt>
      <trkpt lat="50.11777" lon="2.23317">
        <ele>144.82</ele>
        <time>2022-05-11T12:08:09Z</time>
      </trkpt>
      <trkpt lat="50.11759" lon="2.23312">
        <ele>143.37</ele>
        <time>2022-05-11T12:08:24Z</time>
      </trkpt>
      <trkpt lat="50.11738" lon="2.23305">
        <ele>140.97</ele>
        <time>2022-05-11T12:08:41Z</time>
      </trkpt>
      <trkpt lat="50.11722" lon="2.23296">
        <ele>141.45</ele>
        <time>2022-05-11T12:08:53Z</time>
      </trkpt>
      <trkpt lat="50.11704" lon="2.23285">
        <ele>139.53</ele>
        <time>2022-05-11T12:09:09Z</time>
      </trkpt>
      <trkpt lat="50.11686" lon="2.23274">
        <ele>137.61</ele>
        <time>2022-05-11T12:09:24Z</time>
      </trkpt>
      <trkpt lat="50.11669" lon="2.23266">
        <ele>135.68</ele>
        <time>2022-05-11T12:09:37Z</time>
      </trkpt>
      <trkpt lat="50.11649" lon="2.23257">
        <ele>133.76</ele>
        <time>2022-05-11T12:09:53Z</time>
      </trkpt>
      <trkpt lat="50.11625" lon="2.23249">
        <ele>133.76</ele>
        <time>2022-05-11T12:10:10Z</time>
      </trkpt>
      <trkpt lat="50.11604" lon="2.23251">
        <ele>137.13</ele>
        <time>2022-05-11T12:10:24Z</time>
      </trkpt>
      <trkpt lat="50.11603" lon="2.23254">
        <ele>137.13</ele>
        <time>2022-05-11T12:10:26Z</time>
      </trkpt>
      <trkpt lat="50.11598" lon="2.23276">
        <ele>137.13</ele>
        <time>2022-05-11T12:10:37Z</time>
      </trkpt>
      <trkpt lat="50.11594" lon="2.23302">
        <ele>136.64</ele>
        <time>2022-05-11T12:10:51Z</time>
      </trkpt>
      <trkpt lat="50.1159" lon="2.23328">
        <ele>135.2</ele>
        <time>2022-05-11T12:11:06Z</time>
      </trkpt>
      <trkpt lat="50.11591" lon="2.23332">
        <ele>134.72</ele>
        <time>2022-05-11T12:11:16Z</time>
      </trkpt>
      <trkpt lat="50.11591" lon="2.23335">
        <ele>135.2</ele>
        <time>2022-05-11T12:11:27Z</time>
      </trkpt>
      <trkpt lat="50.1159" lon="2.23336">
        <ele>137.13</ele>
        <time>2022-05-11T12:11:39Z</time>
      </trkpt>
      <trkpt lat="50.11587" lon="2.23335">
        <ele>141.45</ele>
        <time>2022-05-11T12:11:58Z</time>
      </trkpt>
      <trkpt lat="50.11587" lon="2.23338">
        <ele>141.45</ele>
        <time>2022-05-11T12:12:11Z</time>
      </trkpt>
      <trkpt lat="50.11586" lon="2.23362">
        <ele>138.57</ele>
        <time>2022-05-11T12:12:23Z</time>
      </trkpt>
      <trkpt lat="50.11584" lon="2.23396">
        <ele>138.09</ele>
        <time>2022-05-11T12:12:38Z</time>
      </trkpt>
      <trkpt lat="50.11584" lon="2.23426">
        <ele>138.09</ele>
        <time>2022-05-11T12:12:52Z</time>
      </trkpt>
      <trkpt lat="50.11583" lon="2.23451">
        <ele>137.13</ele>
        <time>2022-05-11T12:13:05Z</time>
      </trkpt>
      <trkpt lat="50.11583" lon="2.23476">
        <ele>137.13</ele>
        <time>2022-05-11T12:13:17Z</time>
      </trkpt>
      <trkpt lat="50.11581" lon="2.23499">
        <ele>138.09</ele>
        <time>2022-05-11T12:13:29Z</time>
      </trkpt>
      <trkpt lat="50.11579" lon="2.23528">
        <ele>140.01</ele>
        <time>2022-05-11T12:13:43Z</time>
      </trkpt>
      <trkpt lat="50.11578" lon="2.23558">
        <ele>140.97</ele>
        <time>2022-05-11T12:13:57Z</time>
      </trkpt>
      <trkpt lat="50.11576" lon="2.23582">
        <ele>141.93</ele>
        <time>2022-05-11T12:14:10Z</time>
      </trkpt>
      <trkpt lat="50.11574" lon="2.23607">
        <ele>141.93</ele>
        <time>2022-05-11T12:14:25Z</time>
      </trkpt>
      <trkpt lat="50.11572" lon="2.23631">
        <ele>141.93</ele>
        <time>2022-05-11T12:14:38Z</time>
      </trkpt>
      <trkpt lat="50.11571" lon="2.23642">
        <ele>141.93</ele>
        <time>2022-05-11T12:14:44Z</time>
      </trkpt>
      <trkpt lat="50.11567" lon="2.23647">
        <ele>141.93</ele>
        <time>2022-05-11T12:14:49Z</time>
      </trkpt>
      <trkpt lat="50.11562" lon="2.23647">
        <ele>141.93</ele>
        <time>2022-05-11T12:14:53Z</time>
      </trkpt>
      <trkpt lat="50.11543" lon="2.23639">
        <ele>141.93</ele>
        <time>2022-05-11T12:15:08Z</time>
      </trkpt>
      <trkpt lat="50.11524" lon="2.23628">
        <ele>143.85</ele>
        <time>2022-05-11T12:15:22Z</time>
      </trkpt>
      <trkpt lat="50.11508" lon="2.23618">
        <ele>144.34</ele>
        <time>2022-05-11T12:15:36Z</time>
      </trkpt>
      <trkpt lat="50.11492" lon="2.23606">
        <ele>142.41</ele>
        <time>2022-05-11T12:15:50Z</time>
      </trkpt>
      <trkpt lat="50.11472" lon="2.23597">
        <ele>142.89</ele>
        <time>2022-05-11T12:16:04Z</time>
      </trkpt>
      <trkpt lat="50.11449" lon="2.23585">
        <ele>143.37</ele>
        <time>2022-05-11T12:16:21Z</time>
      </trkpt>
      <trkpt lat="50.11429" lon="2.23571">
        <ele>141.45</ele>
        <time>2022-05-11T12:16:38Z</time>
      </trkpt>
      <trkpt lat="50.11409" lon="2.2356">
        <ele>140.49</ele>
        <time>2022-05-11T12:16:53Z</time>
      </trkpt>
      <trkpt lat="50.11386" lon="2.23545">
        <ele>139.05</ele>
        <time>2022-05-11T12:17:11Z</time>
      </trkpt>
      <trkpt lat="50.11371" lon="2.23527">
        <ele>140.49</ele>
        <time>2022-05-11T12:17:24Z</time>
      </trkpt>
      <trkpt lat="50.11368" lon="2.23521">
        <ele>140.01</ele>
        <time>2022-05-11T12:17:28Z</time>
      </trkpt>
      <trkpt lat="50.11351" lon="2.23507">
        <ele>138.57</ele>
        <time>2022-05-11T12:17:42Z</time>
      </trkpt>
      <trkpt lat="50.11334" lon="2.23497">
        <ele>135.68</ele>
        <time>2022-05-11T12:17:57Z</time>
      </trkpt>
      <trkpt lat="50.11315" lon="2.23487">
        <ele>132.32</ele>
        <time>2022-05-11T12:18:12Z</time>
      </trkpt>
      <trkpt lat="50.11292" lon="2.23479">
        <ele>132.32</ele>
        <time>2022-05-11T12:18:27Z</time>
      </trkpt>
      <trkpt lat="50.11269" lon="2.23483">
        <ele>134.24</ele>
        <time>2022-05-11T12:18:42Z</time>
      </trkpt>
      <trkpt lat="50.11246" lon="2.23489">
        <ele>134.72</ele>
        <time>2022-05-11T12:18:59Z</time>
      </trkpt>
      <trkpt lat="50.11226" lon="2.23492">
        <ele>134.24</ele>
        <time>2022-05-11T12:19:13Z</time>
      </trkpt>
      <trkpt lat="50.11203" lon="2.23498">
        <ele>132.8</ele>
        <time>2022-05-11T12:19:30Z</time>
      </trkpt>
      <trkpt lat="50.11183" lon="2.23502">
        <ele>130.88</ele>
        <time>2022-05-11T12:19:45Z</time>
      </trkpt>
      <trkpt lat="50.11164" lon="2.23507">
        <ele>128.47</ele>
        <time>2022-05-11T12:20:01Z</time>
      </trkpt>
      <trkpt lat="50.11146" lon="2.2351">
        <ele>125.59</ele>
        <time>2022-05-11T12:20:15Z</time>
      </trkpt>
      <trkpt lat="50.11138" lon="2.23512">
        <ele>123.67</ele>
        <time>2022-05-11T12:20:21Z</time>
      </trkpt>
      <trkpt lat="50.11122" lon="2.2352">
        <ele>120.78</ele>
        <time>2022-05-11T12:20:36Z</time>
      </trkpt>
      <trkpt lat="50.11104" lon="2.23525">
        <ele>117.9</ele>
        <time>2022-05-11T12:20:50Z</time>
      </trkpt>
      <trkpt lat="50.11085" lon="2.23529">
        <ele>115.5</ele>
        <time>2022-05-11T12:21:05Z</time>
      </trkpt>
      <trkpt lat="50.1107" lon="2.23535">
        <ele>110.21</ele>
        <time>2022-05-11T12:21:19Z</time>
      </trkpt>
      <trkpt lat="50.11069" lon="2.23536">
        <ele>110.21</ele>
        <time>2022-05-11T12:21:20Z</time>
      </trkpt>
      <trkpt lat="50.11049" lon="2.23547">
        <ele>116.46</ele>
        <time>2022-05-11T12:21:34Z</time>
      </trkpt>
      <trkpt lat="50.11026" lon="2.23564">
        <ele>121.74</ele>
        <time>2022-05-11T12:21:48Z</time>
      </trkpt>
      <trkpt lat="50.11007" lon="2.23577">
        <ele>124.63</ele>
        <time>2022-05-11T12:22:02Z</time>
      </trkpt>
      <trkpt lat="50.10987" lon="2.23588">
        <ele>126.07</ele>
        <time>2022-05-11T12:22:17Z</time>
      </trkpt>
      <trkpt lat="50.10971" lon="2.23595">
        <ele>126.07</ele>
        <time>2022-05-11T12:22:29Z</time>
      </trkpt>
      <trkpt lat="50.10954" lon="2.23601">
        <ele>126.07</ele>
        <time>2022-05-11T12:22:42Z</time>
      </trkpt>
      <trkpt lat="50.10933" lon="2.23614">
        <ele>126.07</ele>
        <time>2022-05-11T12:22:57Z</time>
      </trkpt>
      <trkpt lat="50.10915" lon="2.23631">
        <ele>125.11</ele>
        <time>2022-05-11T12:23:12Z</time>
      </trkpt>
      <trkpt lat="50.10895" lon="2.23653">
        <ele>122.71</ele>
        <time>2022-05-11T12:23:29Z</time>
      </trkpt>
      <trkpt lat="50.10885" lon="2.23673">
        <ele>117.9</ele>
        <time>2022-05-11T12:23:43Z</time>
      </trkpt>
      <trkpt lat="50.10876" lon="2.23685">
        <ele>116.46</ele>
        <time>2022-05-11T12:23:54Z</time>
      </trkpt>
      <trkpt lat="50.1086" lon="2.23704">
        <ele>117.9</ele>
        <time>2022-05-11T12:24:09Z</time>
      </trkpt>
      <trkpt lat="50.10843" lon="2.23728">
        <ele>118.86</ele>
        <time>2022-05-11T12:24:24Z</time>
      </trkpt>
      <trkpt lat="50.10826" lon="2.23746">
        <ele>120.78</ele>
        <time>2022-05-11T12:24:36Z</time>
      </trkpt>
      <trkpt lat="50.1081" lon="2.23761">
        <ele>122.22</ele>
        <time>2022-05-11T12:24:48Z</time>
      </trkpt>
      <trkpt lat="50.10791" lon="2.23777">
        <ele>121.26</ele>
        <time>2022-05-11T12:25:02Z</time>
      </trkpt>
      <trkpt lat="50.10777" lon="2.23783">
        <ele>118.38</ele>
        <time>2022-05-11T12:25:14Z</time>
      </trkpt>
      <trkpt lat="50.10766" lon="2.23789">
        <ele>115.5</ele>
        <time>2022-05-11T12:25:24Z</time>
      </trkpt>
      <trkpt lat="50.10752" lon="2.23794">
        <ele>110.69</ele>
        <time>2022-05-11T12:25:38Z</time>
      </trkpt>
      <trkpt lat="50.10738" lon="2.23799">
        <ele>106.84</ele>
        <time>2022-05-11T12:25:50Z</time>
      </trkpt>
      <trkpt lat="50.1072" lon="2.23806">
        <ele>105.4</ele>
        <time>2022-05-11T12:26:04Z</time>
      </trkpt>
      <trkpt lat="50.10695" lon="2.23819">
        <ele>108.29</ele>
        <time>2022-05-11T12:26:19Z</time>
      </trkpt>
      <trkpt lat="50.10672" lon="2.2382">
        <ele>110.21</ele>
        <time>2022-05-11T12:26:32Z</time>
      </trkpt>
      <trkpt lat="50.10659" lon="2.23816">
        <ele>110.21</ele>
        <time>2022-05-11T12:26:42Z</time>
      </trkpt>
      <trkpt lat="50.10654" lon="2.23817">
        <ele>110.21</ele>
        <time>2022-05-11T12:26:46Z</time>
      </trkpt>
      <trkpt lat="50.10634" lon="2.23815">
        <ele>109.73</ele>
        <time>2022-05-11T12:27:01Z</time>
      </trkpt>
      <trkpt lat="50.10618" lon="2.23814">
        <ele>108.77</ele>
        <time>2022-05-11T12:27:13Z</time>
      </trkpt>
      <trkpt lat="50.10601" lon="2.23813">
        <ele>108.29</ele>
        <time>2022-05-11T12:27:26Z</time>
      </trkpt>
      <trkpt lat="50.10577" lon="2.23819">
        <ele>111.65</ele>
        <time>2022-05-11T12:27:42Z</time>
      </trkpt>
      <trkpt lat="50.10557" lon="2.23831">
        <ele>115.01</ele>
        <time>2022-05-11T12:27:55Z</time>
      </trkpt>
      <trkpt lat="50.10538" lon="2.23843">
        <ele>118.38</ele>
        <time>2022-05-11T12:28:08Z</time>
      </trkpt>
      <trkpt lat="50.10518" lon="2.23853">
        <ele>118.38</ele>
        <time>2022-05-11T12:28:23Z</time>
      </trkpt>
      <trkpt lat="50.105" lon="2.23858">
        <ele>117.42</ele>
        <time>2022-05-11T12:28:36Z</time>
      </trkpt>
      <trkpt lat="50.10484" lon="2.23873">
        <ele>116.46</ele>
        <time>2022-05-11T12:28:50Z</time>
      </trkpt>
      <trkpt lat="50.10478" lon="2.23898">
        <ele>116.46</ele>
        <time>2022-05-11T12:29:03Z</time>
      </trkpt>
      <trkpt lat="50.10474" lon="2.23925">
        <ele>115.5</ele>
        <time>2022-05-11T12:29:16Z</time>
      </trkpt>
      <trkpt lat="50.10473" lon="2.23951">
        <ele>116.46</ele>
        <time>2022-05-11T12:29:29Z</time>
      </trkpt>
      <trkpt lat="50.1047" lon="2.23973">
        <ele>115.98</ele>
        <time>2022-05-11T12:29:40Z</time>
      </trkpt>
      <trkpt lat="50.1046" lon="2.23998">
        <ele>113.57</ele>
        <time>2022-05-11T12:29:54Z</time>
      </trkpt>
      <trkpt lat="50.10447" lon="2.24023">
        <ele>111.65</ele>
        <time>2022-05-11T12:30:09Z</time>
      </trkpt>
      <trkpt lat="50.10433" lon="2.24042">
        <ele>112.61</ele>
        <time>2022-05-11T12:30:22Z</time>
      </trkpt>
      <trkpt lat="50.10427" lon="2.2405">
        <ele>111.65</ele>
        <time>2022-05-11T12:30:28Z</time>
      </trkpt>
      <trkpt lat="50.10414" lon="2.24065">
        <ele>111.17</ele>
        <time>2022-05-11T12:30:41Z</time>
      </trkpt>
      <trkpt lat="50.10407" lon="2.24069">
        <ele>110.21</ele>
        <time>2022-05-11T12:30:48Z</time>
      </trkpt>
      <trkpt lat="50.10404" lon="2.24072">
        <ele>109.73</ele>
        <time>2022-05-11T12:30:50Z</time>
      </trkpt>
      <trkpt lat="50.10384" lon="2.24082">
        <ele>108.29</ele>
        <time>2022-05-11T12:31:03Z</time>
      </trkpt>
      <trkpt lat="50.10366" lon="2.24088">
        <ele>107.81</ele>
        <time>2022-05-11T12:31:15Z</time>
      </trkpt>
      <trkpt lat="50.10349" lon="2.24088">
        <ele>106.36</ele>
        <time>2022-05-11T12:31:26Z</time>
      </trkpt>
      <trkpt lat="50.10337" lon="2.24084">
        <ele>103</ele>
        <time>2022-05-11T12:31:37Z</time>
      </trkpt>
      <trkpt lat="50.10322" lon="2.24077">
        <ele>98.67</ele>
        <time>2022-05-11T12:31:49Z</time>
      </trkpt>
      <trkpt lat="50.10308" lon="2.24072">
        <ele>94.35</ele>
        <time>2022-05-11T12:32:01Z</time>
      </trkpt>
      <trkpt lat="50.10294" lon="2.24063">
        <ele>89.54</ele>
        <time>2022-05-11T12:32:13Z</time>
      </trkpt>
      <trkpt lat="50.10288" lon="2.24056">
        <ele>88.58</ele>
        <time>2022-05-11T12:32:18Z</time>
      </trkpt>
      <trkpt lat="50.10273" lon="2.24036">
        <ele>88.1</ele>
        <time>2022-05-11T12:32:28Z</time>
      </trkpt>
      <trkpt lat="50.10261" lon="2.24017">
        <ele>91.94</ele>
        <time>2022-05-11T12:32:37Z</time>
      </trkpt>
      <trkpt lat="50.10247" lon="2.24">
        <ele>90.02</ele>
        <time>2022-05-11T12:32:49Z</time>
      </trkpt>
      <trkpt lat="50.10231" lon="2.23979">
        <ele>90.5</ele>
        <time>2022-05-11T12:33:03Z</time>
      </trkpt>
      <trkpt lat="50.1022" lon="2.23966">
        <ele>91.94</ele>
        <time>2022-05-11T12:33:14Z</time>
      </trkpt>
      <trkpt lat="50.10203" lon="2.23948">
        <ele>93.87</ele>
        <time>2022-05-11T12:33:28Z</time>
      </trkpt>
      <trkpt lat="50.102" lon="2.23946">
        <ele>94.83</ele>
        <time>2022-05-11T12:33:30Z</time>
      </trkpt>
      <trkpt lat="50.1018" lon="2.23932">
        <ele>96.27</ele>
        <time>2022-05-11T12:33:44Z</time>
      </trkpt>
      <trkpt lat="50.10165" lon="2.2392">
        <ele>96.75</ele>
        <time>2022-05-11T12:33:55Z</time>
      </trkpt>
      <trkpt lat="50.10147" lon="2.2391">
        <ele>93.39</ele>
        <time>2022-05-11T12:34:08Z</time>
      </trkpt>
      <trkpt lat="50.1013" lon="2.23903">
        <ele>90.5</ele>
        <time>2022-05-11T12:34:21Z</time>
      </trkpt>
      <trkpt lat="50.10124" lon="2.23902">
        <ele>90.02</ele>
        <time>2022-05-11T12:34:25Z</time>
      </trkpt>
      <trkpt lat="50.10104" lon="2.23898">
        <ele>88.1</ele>
        <time>2022-05-11T12:34:39Z</time>
      </trkpt>
      <trkpt lat="50.10089" lon="2.23893">
        <ele>87.62</ele>
        <time>2022-05-11T12:34:50Z</time>
      </trkpt>
      <trkpt lat="50.10076" lon="2.23885">
        <ele>88.58</ele>
        <time>2022-05-11T12:34:59Z</time>
      </trkpt>
      <trkpt lat="50.1007" lon="2.23884">
        <ele>89.06</ele>
        <time>2022-05-11T12:35:03Z</time>
      </trkpt>
      <trkpt lat="50.10062" lon="2.23883">
        <ele>89.54</ele>
        <time>2022-05-11T12:35:09Z</time>
      </trkpt>
      <trkpt lat="50.10056" lon="2.23883">
        <ele>89.06</ele>
        <time>2022-05-11T12:35:14Z</time>
      </trkpt>
      <trkpt lat="50.10044" lon="2.23882">
        <ele>87.62</ele>
        <time>2022-05-11T12:35:26Z</time>
      </trkpt>
      <trkpt lat="50.10043" lon="2.23881">
        <ele>87.14</ele>
        <time>2022-05-11T12:35:27Z</time>
      </trkpt>
      <trkpt lat="50.10026" lon="2.23858">
        <ele>91.46</ele>
        <time>2022-05-11T12:35:40Z</time>
      </trkpt>
      <trkpt lat="50.10018" lon="2.23842">
        <ele>98.19</ele>
        <time>2022-05-11T12:35:52Z</time>
      </trkpt>
      <trkpt lat="50.10008" lon="2.23824">
        <ele>100.11</ele>
        <time>2022-05-11T12:36:05Z</time>
      </trkpt>
      <trkpt lat="50.09997" lon="2.23807">
        <ele>100.11</ele>
        <time>2022-05-11T12:36:16Z</time>
      </trkpt>
      <trkpt lat="50.0999" lon="2.2379">
        <ele>98.19</ele>
        <time>2022-05-11T12:36:29Z</time>
      </trkpt>
      <trkpt lat="50.09985" lon="2.23777">
        <ele>97.23</ele>
        <time>2022-05-11T12:36:38Z</time>
      </trkpt>
      <trkpt lat="50.09972" lon="2.23749">
        <ele>98.19</ele>
        <time>2022-05-11T12:36:51Z</time>
      </trkpt>
      <trkpt lat="50.09962" lon="2.23733">
        <ele>95.31</ele>
        <time>2022-05-11T12:37:02Z</time>
      </trkpt>
      <trkpt lat="50.09956" lon="2.2372">
        <ele>94.35</ele>
        <time>2022-05-11T12:37:13Z</time>
      </trkpt>
      <trkpt lat="50.09948" lon="2.23708">
        <ele>93.87</ele>
        <time>2022-05-11T12:37:25Z</time>
      </trkpt>
      <trkpt lat="50.09939" lon="2.23694">
        <ele>90.98</ele>
        <time>2022-05-11T12:37:36Z</time>
      </trkpt>
      <trkpt lat="50.09922" lon="2.23669">
        <ele>90.02</ele>
        <time>2022-05-11T12:37:50Z</time>
      </trkpt>
      <trkpt lat="50.09909" lon="2.23654">
        <ele>88.1</ele>
        <time>2022-05-11T12:38:03Z</time>
      </trkpt>
      <trkpt lat="50.09898" lon="2.23641">
        <ele>86.66</ele>
        <time>2022-05-11T12:38:13Z</time>
      </trkpt>
      <trkpt lat="50.09887" lon="2.23632">
        <ele>85.21</ele>
        <time>2022-05-11T12:38:27Z</time>
      </trkpt>
      <trkpt lat="50.09867" lon="2.23615">
        <ele>82.81</ele>
        <time>2022-05-11T12:38:41Z</time>
      </trkpt>
      <trkpt lat="50.09844" lon="2.23601">
        <ele>82.33</ele>
        <time>2022-05-11T12:38:56Z</time>
      </trkpt>
      <trkpt lat="50.09828" lon="2.23597">
        <ele>80.89</ele>
        <time>2022-05-11T12:39:09Z</time>
      </trkpt>
      <trkpt lat="50.09803" lon="2.23595">
        <ele>82.81</ele>
        <time>2022-05-11T12:39:25Z</time>
      </trkpt>
      <trkpt lat="50.09788" lon="2.23591">
        <ele>81.85</ele>
        <time>2022-05-11T12:39:36Z</time>
      </trkpt>
      <trkpt lat="50.09774" lon="2.23591">
        <ele>78.48</ele>
        <time>2022-05-11T12:39:48Z</time>
      </trkpt>
      <trkpt lat="50.09759" lon="2.23595">
        <ele>76.08</ele>
        <time>2022-05-11T12:40:00Z</time>
      </trkpt>
      <trkpt lat="50.09741" lon="2.23589">
        <ele>71.27</ele>
        <time>2022-05-11T12:40:13Z</time>
      </trkpt>
      <trkpt lat="50.09725" lon="2.23585">
        <ele>71.27</ele>
        <time>2022-05-11T12:40:24Z</time>
      </trkpt>
      <trkpt lat="50.09714" lon="2.2358">
        <ele>74.64</ele>
        <time>2022-05-11T12:40:36Z</time>
      </trkpt>
      <trkpt lat="50.09697" lon="2.23575">
        <ele>80.41</ele>
        <time>2022-05-11T12:40:48Z</time>
      </trkpt>
      <trkpt lat="50.09688" lon="2.23566">
        <ele>81.85</ele>
        <time>2022-05-11T12:41:02Z</time>
      </trkpt>
      <trkpt lat="50.09685" lon="2.23565">
        <ele>80.41</ele>
        <time>2022-05-11T12:41:18Z</time>
      </trkpt>
      <trkpt lat="50.09681" lon="2.23556">
        <ele>83.29</ele>
        <time>2022-05-11T12:41:37Z</time>
      </trkpt>
      <trkpt lat="50.0968" lon="2.23552">
        <ele>85.21</ele>
        <time>2022-05-11T12:41:51Z</time>
      </trkpt>
      <trkpt lat="50.09678" lon="2.23549">
        <ele>87.14</ele>
        <time>2022-05-11T12:42:07Z</time>
      </trkpt>
      <trkpt lat="50.09677" lon="2.23547">
        <ele>88.58</ele>
        <time>2022-05-11T12:42:21Z</time>
      </trkpt>
      <trkpt lat="50.09675" lon="2.2354">
        <ele>91.46</ele>
        <time>2022-05-11T12:42:34Z</time>
      </trkpt>
      <trkpt lat="50.09675" lon="2.23536">
        <ele>92.9</ele>
        <time>2022-05-11T12:42:52Z</time>
      </trkpt>
      <trkpt lat="50.09674" lon="2.23534">
        <ele>94.35</ele>
        <time>2022-05-11T12:43:13Z</time>
      </trkpt>
      <trkpt lat="50.09675" lon="2.23534">
        <ele>94.35</ele>
        <time>2022-05-11T12:43:35Z</time>
      </trkpt>
      <trkpt lat="50.09676" lon="2.23534">
        <ele>94.83</ele>
        <time>2022-05-11T12:43:51Z</time>
      </trkpt>
      <trkpt lat="50.09675" lon="2.23532">
        <ele>95.31</ele>
        <time>2022-05-11T12:44:08Z</time>
      </trkpt>
      <trkpt lat="50.09675" lon="2.23531">
        <ele>96.27</ele>
        <time>2022-05-11T12:44:23Z</time>
      </trkpt>
      <trkpt lat="50.09675" lon="2.2353">
        <ele>96.75</ele>
        <time>2022-05-11T12:44:35Z</time>
      </trkpt>
      <trkpt lat="50.09673" lon="2.23524">
        <ele>95.79</ele>
        <time>2022-05-11T12:44:45Z</time>
      </trkpt>
      <trkpt lat="50.09666" lon="2.23507">
        <ele>93.87</ele>
        <time>2022-05-11T12:44:59Z</time>
      </trkpt>
      <trkpt lat="50.09659" lon="2.23502">
        <ele>93.39</ele>
        <time>2022-05-11T12:45:11Z</time>
      </trkpt>
      <trkpt lat="50.09658" lon="2.23503">
        <ele>92.9</ele>
        <time>2022-05-11T12:45:26Z</time>
      </trkpt>
      <trkpt lat="50.09657" lon="2.23503">
        <ele>93.39</ele>
        <time>2022-05-11T12:45:45Z</time>
      </trkpt>
      <trkpt lat="50.09656" lon="2.23504">
        <ele>93.87</ele>
        <time>2022-05-11T12:46:04Z</time>
      </trkpt>
      <trkpt lat="50.09655" lon="2.23503">
        <ele>94.83</ele>
        <time>2022-05-11T12:46:16Z</time>
      </trkpt>
      <trkpt lat="50.09653" lon="2.2349">
        <ele>94.83</ele>
        <time>2022-05-11T12:46:27Z</time>
      </trkpt>
      <trkpt lat="50.09647" lon="2.23464">
        <ele>95.31</ele>
        <time>2022-05-11T12:46:39Z</time>
      </trkpt>
      <trkpt lat="50.09641" lon="2.23451">
        <ele>94.83</ele>
        <time>2022-05-11T12:46:47Z</time>
      </trkpt>
      <trkpt lat="50.09636" lon="2.23427">
        <ele>93.87</ele>
        <time>2022-05-11T12:47:01Z</time>
      </trkpt>
      <trkpt lat="50.09628" lon="2.23419">
        <ele>93.39</ele>
        <time>2022-05-11T12:47:16Z</time>
      </trkpt>
      <trkpt lat="50.09617" lon="2.23403">
        <ele>93.39</ele>
        <time>2022-05-11T12:47:27Z</time>
      </trkpt>
      <trkpt lat="50.09609" lon="2.23378">
        <ele>94.35</ele>
        <time>2022-05-11T12:47:39Z</time>
      </trkpt>
      <trkpt lat="50.09601" lon="2.23367">
        <ele>93.39</ele>
        <time>2022-05-11T12:47:50Z</time>
      </trkpt>
      <trkpt lat="50.09587" lon="2.23365">
        <ele>90.98</ele>
        <time>2022-05-11T12:48:02Z</time>
      </trkpt>
      <trkpt lat="50.09572" lon="2.23362">
        <ele>86.66</ele>
        <time>2022-05-11T12:48:16Z</time>
      </trkpt>
      <trkpt lat="50.09564" lon="2.23361">
        <ele>85.69</ele>
        <time>2022-05-11T12:48:29Z</time>
      </trkpt>
      <trkpt lat="50.09553" lon="2.23357">
        <ele>81.85</ele>
        <time>2022-05-11T12:48:39Z</time>
      </trkpt>
      <trkpt lat="50.09549" lon="2.23354">
        <ele>81.37</ele>
        <time>2022-05-11T12:48:42Z</time>
      </trkpt>
      <trkpt lat="50.09542" lon="2.2335">
        <ele>79.93</ele>
        <time>2022-05-11T12:48:47Z</time>
      </trkpt>
      <trkpt lat="50.09526" lon="2.23347">
        <ele>78.97</ele>
        <time>2022-05-11T12:48:59Z</time>
      </trkpt>
      <trkpt lat="50.09514" lon="2.23344">
        <ele>77.04</ele>
        <time>2022-05-11T12:49:09Z</time>
      </trkpt>
      <trkpt lat="50.09499" lon="2.23336">
        <ele>76.56</ele>
        <time>2022-05-11T12:49:21Z</time>
      </trkpt>
      <trkpt lat="50.09478" lon="2.23337">
        <ele>75.12</ele>
        <time>2022-05-11T12:49:35Z</time>
      </trkpt>
      <trkpt lat="50.0947" lon="2.23334">
        <ele>73.2</ele>
        <time>2022-05-11T12:49:46Z</time>
      </trkpt>
      <trkpt lat="50.09456" lon="2.23328">
        <ele>67.91</ele>
        <time>2022-05-11T12:49:57Z</time>
      </trkpt>
      <trkpt lat="50.09442" lon="2.23326">
        <ele>64.07</ele>
        <time>2022-05-11T12:50:08Z</time>
      </trkpt>
      <trkpt lat="50.09427" lon="2.23311">
        <ele>61.18</ele>
        <time>2022-05-11T12:50:20Z</time>
      </trkpt>
      <trkpt lat="50.09414" lon="2.23298">
        <ele>59.26</ele>
        <time>2022-05-11T12:50:32Z</time>
      </trkpt>
      <trkpt lat="50.09406" lon="2.23287">
        <ele>59.74</ele>
        <time>2022-05-11T12:50:43Z</time>
      </trkpt>
      <trkpt lat="50.09394" lon="2.23271">
        <ele>58.3</ele>
        <time>2022-05-11T12:50:55Z</time>
      </trkpt>
      <trkpt lat="50.0938" lon="2.23263">
        <ele>65.99</ele>
        <time>2022-05-11T12:51:08Z</time>
      </trkpt>
      <trkpt lat="50.0937" lon="2.23254">
        <ele>65.99</ele>
        <time>2022-05-11T12:51:19Z</time>
      </trkpt>
      <trkpt lat="50.09356" lon="2.23251">
        <ele>66.47</ele>
        <time>2022-05-11T12:51:30Z</time>
      </trkpt>
      <trkpt lat="50.09341" lon="2.23253">
        <ele>66.95</ele>
        <time>2022-05-11T12:51:45Z</time>
      </trkpt>
      <trkpt lat="50.09328" lon="2.23262">
        <ele>63.58</ele>
        <time>2022-05-11T12:51:59Z</time>
      </trkpt>
      <trkpt lat="50.09313" lon="2.23294">
        <ele>66.95</ele>
        <time>2022-05-11T12:52:12Z</time>
      </trkpt>
      <trkpt lat="50.09305" lon="2.23318">
        <ele>69.83</ele>
        <time>2022-05-11T12:52:24Z</time>
      </trkpt>
      <trkpt lat="50.09297" lon="2.2333">
        <ele>68.39</ele>
        <time>2022-05-11T12:52:35Z</time>
      </trkpt>
      <trkpt lat="50.09287" lon="2.23349">
        <ele>68.87</ele>
        <time>2022-05-11T12:52:46Z</time>
      </trkpt>
      <trkpt lat="50.09278" lon="2.23367">
        <ele>71.27</ele>
        <time>2022-05-11T12:52:58Z</time>
      </trkpt>
      <trkpt lat="50.09267" lon="2.23393">
        <ele>74.64</ele>
        <time>2022-05-11T12:53:11Z</time>
      </trkpt>
      <trkpt lat="50.09259" lon="2.23403">
        <ele>69.83</ele>
        <time>2022-05-11T12:53:25Z</time>
      </trkpt>
      <trkpt lat="50.09254" lon="2.23413">
        <ele>66.47</ele>
        <time>2022-05-11T12:53:34Z</time>
      </trkpt>
      <trkpt lat="50.09241" lon="2.23436">
        <ele>62.62</ele>
        <time>2022-05-11T12:53:49Z</time>
      </trkpt>
      <trkpt lat="50.09225" lon="2.23457">
        <ele>62.14</ele>
        <time>2022-05-11T12:54:03Z</time>
      </trkpt>
      <trkpt lat="50.09216" lon="2.23478">
        <ele>59.74</ele>
        <time>2022-05-11T12:54:17Z</time>
      </trkpt>
      <trkpt lat="50.09207" lon="2.23495">
        <ele>61.18</ele>
        <time>2022-05-11T12:54:28Z</time>
      </trkpt>
      <trkpt lat="50.09204" lon="2.23503">
        <ele>64.55</ele>
        <time>2022-05-11T12:54:42Z</time>
      </trkpt>
      <trkpt lat="50.09199" lon="2.23517">
        <ele>78.97</ele>
        <time>2022-05-11T12:54:59Z</time>
      </trkpt>
      <trkpt lat="50.092" lon="2.23519">
        <ele>81.37</ele>
        <time>2022-05-11T12:55:18Z</time>
      </trkpt>
      <trkpt lat="50.09201" lon="2.23522">
        <ele>84.25</ele>
        <time>2022-05-11T12:55:28Z</time>
      </trkpt>
      <trkpt lat="50.09196" lon="2.23522">
        <ele>86.18</ele>
        <time>2022-05-11T12:55:46Z</time>
      </trkpt>
      <trkpt lat="50.09194" lon="2.23526">
        <ele>87.62</ele>
        <time>2022-05-11T12:56:01Z</time>
      </trkpt>
      <trkpt lat="50.09191" lon="2.23537">
        <ele>86.18</ele>
        <time>2022-05-11T12:56:14Z</time>
      </trkpt>
      <trkpt lat="50.09185" lon="2.23541">
        <ele>88.1</ele>
        <time>2022-05-11T12:56:26Z</time>
      </trkpt>
      <trkpt lat="50.09181" lon="2.23548">
        <ele>86.66</ele>
        <time>2022-05-11T12:56:38Z</time>
      </trkpt>
      <trkpt lat="50.09174" lon="2.23556">
        <ele>88.1</ele>
        <time>2022-05-11T12:56:49Z</time>
      </trkpt>
      <trkpt lat="50.09172" lon="2.23561">
        <ele>90.02</ele>
        <time>2022-05-11T12:57:03Z</time>
      </trkpt>
      <trkpt lat="50.09169" lon="2.23563">
        <ele>91.46</ele>
        <time>2022-05-11T12:57:16Z</time>
      </trkpt>
      <trkpt lat="50.09164" lon="2.23561">
        <ele>92.42</ele>
        <time>2022-05-11T12:57:29Z</time>
      </trkpt>
      <trkpt lat="50.09162" lon="2.23561">
        <ele>92.42</ele>
        <time>2022-05-11T12:57:44Z</time>
      </trkpt>
      <trkpt lat="50.09161" lon="2.2356">
        <ele>92.9</ele>
        <time>2022-05-11T12:57:59Z</time>
      </trkpt>
      <trkpt lat="50.09161" lon="2.2356">
        <ele>92.9</ele>
        <time>2022-05-11T12:58:18Z</time>
      </trkpt>
      <trkpt lat="50.0916" lon="2.23561">
        <ele>92.42</ele>
        <time>2022-05-11T12:58:35Z</time>
      </trkpt>
      <trkpt lat="50.09158" lon="2.23564">
        <ele>90.98</ele>
        <time>2022-05-11T12:58:49Z</time>
      </trkpt>
      <trkpt lat="50.09158" lon="2.23566">
        <ele>90.98</ele>
        <time>2022-05-11T12:59:09Z</time>
      </trkpt>
      <trkpt lat="50.09157" lon="2.23566">
        <ele>90.5</ele>
        <time>2022-05-11T12:59:29Z</time>
      </trkpt>
      <trkpt lat="50.09156" lon="2.23567">
        <ele>89.54</ele>
        <time>2022-05-11T12:59:52Z</time>
      </trkpt>
      <trkpt lat="50.09147" lon="2.23572">
        <ele>89.54</ele>
        <time>2022-05-11T13:00:08Z</time>
      </trkpt>
      <trkpt lat="50.09137" lon="2.23578">
        <ele>88.58</ele>
        <time>2022-05-11T13:00:20Z</time>
      </trkpt>
      <trkpt lat="50.09126" lon="2.23581">
        <ele>87.14</ele>
        <time>2022-05-11T13:00:32Z</time>
      </trkpt>
      <trkpt lat="50.09113" lon="2.23588">
        <ele>84.25</ele>
        <time>2022-05-11T13:00:46Z</time>
      </trkpt>
      <trkpt lat="50.09093" lon="2.23596">
        <ele>84.25</ele>
        <time>2022-05-11T13:00:59Z</time>
      </trkpt>
      <trkpt lat="50.09084" lon="2.23597">
        <ele>81.85</ele>
        <time>2022-05-11T13:01:10Z</time>
      </trkpt>
      <trkpt lat="50.09072" lon="2.23596">
        <ele>78</ele>
        <time>2022-05-11T13:01:22Z</time>
      </trkpt>
      <trkpt lat="50.09053" lon="2.23591">
        <ele>75.12</ele>
        <time>2022-05-11T13:01:35Z</time>
      </trkpt>
      <trkpt lat="50.09042" lon="2.23587">
        <ele>73.2</ele>
        <time>2022-05-11T13:01:47Z</time>
      </trkpt>
      <trkpt lat="50.09028" lon="2.23585">
        <ele>72.24</ele>
        <time>2022-05-11T13:01:59Z</time>
      </trkpt>
      <trkpt lat="50.09011" lon="2.23579">
        <ele>74.64</ele>
        <time>2022-05-11T13:02:12Z</time>
      </trkpt>
      <trkpt lat="50.08999" lon="2.23575">
        <ele>74.16</ele>
        <time>2022-05-11T13:02:25Z</time>
      </trkpt>
      <trkpt lat="50.08983" lon="2.23566">
        <ele>71.76</ele>
        <time>2022-05-11T13:02:38Z</time>
      </trkpt>
      <trkpt lat="50.08973" lon="2.23561">
        <ele>69.35</ele>
        <time>2022-05-11T13:02:46Z</time>
      </trkpt>
      <trkpt lat="50.08957" lon="2.23553">
        <ele>65.03</ele>
        <time>2022-05-11T13:02:59Z</time>
      </trkpt>
      <trkpt lat="50.08948" lon="2.23552">
        <ele>63.58</ele>
        <time>2022-05-11T13:03:07Z</time>
      </trkpt>
      <trkpt lat="50.08938" lon="2.23547">
        <ele>63.1</ele>
        <time>2022-05-11T13:03:15Z</time>
      </trkpt>
      <trkpt lat="50.08934" lon="2.23542">
        <ele>65.99</ele>
        <time>2022-05-11T13:03:20Z</time>
      </trkpt>
      <trkpt lat="50.08933" lon="2.23536">
        <ele>69.83</ele>
        <time>2022-05-11T13:03:24Z</time>
      </trkpt>
      <trkpt lat="50.08939" lon="2.23526">
        <ele>72.72</ele>
        <time>2022-05-11T13:03:33Z</time>
      </trkpt>
      <trkpt lat="50.08941" lon="2.23504">
        <ele>78.48</ele>
        <time>2022-05-11T13:03:44Z</time>
      </trkpt>
      <trkpt lat="50.08944" lon="2.23485">
        <ele>79.93</ele>
        <time>2022-05-11T13:03:54Z</time>
      </trkpt>
      <trkpt lat="50.08947" lon="2.23466">
        <ele>80.89</ele>
        <time>2022-05-11T13:04:04Z</time>
      </trkpt>
      <trkpt lat="50.08948" lon="2.23442">
        <ele>82.33</ele>
        <time>2022-05-11T13:04:16Z</time>
      </trkpt>
      <trkpt lat="50.08942" lon="2.23422">
        <ele>82.81</ele>
        <time>2022-05-11T13:04:27Z</time>
      </trkpt>
      <trkpt lat="50.08928" lon="2.23407">
        <ele>82.81</ele>
        <time>2022-05-11T13:04:41Z</time>
      </trkpt>
      <trkpt lat="50.08909" lon="2.23396">
        <ele>83.77</ele>
        <time>2022-05-11T13:04:56Z</time>
      </trkpt>
      <trkpt lat="50.08889" lon="2.23381">
        <ele>84.73</ele>
        <time>2022-05-11T13:05:14Z</time>
      </trkpt>
      <trkpt lat="50.08868" lon="2.23364">
        <ele>82.33</ele>
        <time>2022-05-11T13:05:33Z</time>
      </trkpt>
      <trkpt lat="50.08851" lon="2.23346">
        <ele>80.89</ele>
        <time>2022-05-11T13:05:49Z</time>
      </trkpt>
      <trkpt lat="50.08834" lon="2.23326">
        <ele>80.89</ele>
        <time>2022-05-11T13:06:05Z</time>
      </trkpt>
      <trkpt lat="50.08817" lon="2.23303">
        <ele>82.33</ele>
        <time>2022-05-11T13:06:22Z</time>
      </trkpt>
      <trkpt lat="50.08802" lon="2.23283">
        <ele>82.33</ele>
        <time>2022-05-11T13:06:38Z</time>
      </trkpt>
      <trkpt lat="50.08784" lon="2.23264">
        <ele>81.37</ele>
        <time>2022-05-11T13:06:55Z</time>
      </trkpt>
      <trkpt lat="50.08765" lon="2.23249">
        <ele>80.89</ele>
        <time>2022-05-11T13:07:11Z</time>
      </trkpt>
      <trkpt lat="50.08743" lon="2.23237">
        <ele>80.89</ele>
        <time>2022-05-11T13:07:29Z</time>
      </trkpt>
      <trkpt lat="50.08721" lon="2.23224">
        <ele>80.89</ele>
        <time>2022-05-11T13:07:46Z</time>
      </trkpt>
      <trkpt lat="50.08702" lon="2.23214">
        <ele>81.85</ele>
        <time>2022-05-11T13:08:03Z</time>
      </trkpt>
      <trkpt lat="50.08688" lon="2.23222">
        <ele>78.97</ele>
        <time>2022-05-11T13:08:15Z</time>
      </trkpt>
      <trkpt lat="50.08675" lon="2.23239">
        <ele>78.48</ele>
        <time>2022-05-11T13:08:28Z</time>
      </trkpt>
      <trkpt lat="50.08662" lon="2.23262">
        <ele>78</ele>
        <time>2022-05-11T13:08:43Z</time>
      </trkpt>
      <trkpt lat="50.0866" lon="2.23264">
        <ele>78.48</ele>
        <time>2022-05-11T13:08:53Z</time>
      </trkpt>
      <trkpt lat="50.08652" lon="2.23268">
        <ele>78.97</ele>
        <time>2022-05-11T13:09:00Z</time>
      </trkpt>
      <trkpt lat="50.08647" lon="2.23264">
        <ele>78.97</ele>
        <time>2022-05-11T13:09:04Z</time>
      </trkpt>
      <trkpt lat="50.08629" lon="2.23249">
        <ele>77.04</ele>
        <time>2022-05-11T13:09:19Z</time>
      </trkpt>
      <trkpt lat="50.08612" lon="2.23232">
        <ele>77.04</ele>
        <time>2022-05-11T13:09:34Z</time>
      </trkpt>
      <trkpt lat="50.08598" lon="2.23219">
        <ele>75.12</ele>
        <time>2022-05-11T13:09:46Z</time>
      </trkpt>
      <trkpt lat="50.08584" lon="2.23205">
        <ele>73.68</ele>
        <time>2022-05-11T13:09:58Z</time>
      </trkpt>
      <trkpt lat="50.08572" lon="2.23196">
        <ele>71.76</ele>
        <time>2022-05-11T13:10:09Z</time>
      </trkpt>
      <trkpt lat="50.08556" lon="2.23182">
        <ele>71.76</ele>
        <time>2022-05-11T13:10:22Z</time>
      </trkpt>
      <trkpt lat="50.08542" lon="2.23171">
        <ele>69.35</ele>
        <time>2022-05-11T13:10:34Z</time>
      </trkpt>
      <trkpt lat="50.08522" lon="2.23162">
        <ele>70.31</ele>
        <time>2022-05-11T13:10:48Z</time>
      </trkpt>
      <trkpt lat="50.08498" lon="2.23152">
        <ele>71.76</ele>
        <time>2022-05-11T13:11:05Z</time>
      </trkpt>
      <trkpt lat="50.08478" lon="2.23147">
        <ele>70.79</ele>
        <time>2022-05-11T13:11:19Z</time>
      </trkpt>
      <trkpt lat="50.08458" lon="2.23142">
        <ele>72.72</ele>
        <time>2022-05-11T13:11:34Z</time>
      </trkpt>
      <trkpt lat="50.08447" lon="2.23164">
        <ele>71.27</ele>
        <time>2022-05-11T13:11:49Z</time>
      </trkpt>
      <trkpt lat="50.08444" lon="2.23174">
        <ele>72.24</ele>
        <time>2022-05-11T13:11:55Z</time>
      </trkpt>
      <trkpt lat="50.08437" lon="2.23191">
        <ele>72.24</ele>
        <time>2022-05-11T13:12:08Z</time>
      </trkpt>
      <trkpt lat="50.08432" lon="2.2321">
        <ele>71.27</ele>
        <time>2022-05-11T13:12:21Z</time>
      </trkpt>
      <trkpt lat="50.0843" lon="2.23227">
        <ele>70.79</ele>
        <time>2022-05-11T13:12:29Z</time>
      </trkpt>
      <trkpt lat="50.08425" lon="2.23249">
        <ele>70.31</ele>
        <time>2022-05-11T13:12:41Z</time>
      </trkpt>
      <trkpt lat="50.08421" lon="2.2326">
        <ele>71.27</ele>
        <time>2022-05-11T13:12:54Z</time>
      </trkpt>
      <trkpt lat="50.0842" lon="2.23263">
        <ele>72.72</ele>
        <time>2022-05-11T13:13:05Z</time>
      </trkpt>
      <trkpt lat="50.08419" lon="2.23265">
        <ele>72.72</ele>
        <time>2022-05-11T13:13:17Z</time>
      </trkpt>
      <trkpt lat="50.08419" lon="2.23267">
        <ele>73.2</ele>
        <time>2022-05-11T13:13:34Z</time>
      </trkpt>
      <trkpt lat="50.08418" lon="2.23268">
        <ele>75.12</ele>
        <time>2022-05-11T13:13:56Z</time>
      </trkpt>
      <trkpt lat="50.08418" lon="2.23267">
        <ele>75.12</ele>
        <time>2022-05-11T13:14:19Z</time>
      </trkpt>
      <trkpt lat="50.08418" lon="2.2327">
        <ele>76.08</ele>
        <time>2022-05-11T13:14:35Z</time>
      </trkpt>
      <trkpt lat="50.0842" lon="2.23273">
        <ele>75.6</ele>
        <time>2022-05-11T13:14:58Z</time>
      </trkpt>
      <trkpt lat="50.08419" lon="2.23273">
        <ele>75.6</ele>
        <time>2022-05-11T13:15:15Z</time>
      </trkpt>
      <trkpt lat="50.08419" lon="2.23271">
        <ele>76.56</ele>
        <time>2022-05-11T13:15:35Z</time>
      </trkpt>
      <trkpt lat="50.08419" lon="2.2327">
        <ele>77.52</ele>
        <time>2022-05-11T13:15:54Z</time>
      </trkpt>
      <trkpt lat="50.08419" lon="2.23267">
        <ele>77.04</ele>
        <time>2022-05-11T13:16:13Z</time>
      </trkpt>
      <trkpt lat="50.08419" lon="2.23267">
        <ele>77.04</ele>
        <time>2022-05-11T13:16:35Z</time>
      </trkpt>
      <trkpt lat="50.08418" lon="2.23267">
        <ele>76.56</ele>
        <time>2022-05-11T13:16:48Z</time>
      </trkpt>
      <trkpt lat="50.08417" lon="2.23268">
        <ele>76.08</ele>
        <time>2022-05-11T13:17:09Z</time>
      </trkpt>
      <trkpt lat="50.08417" lon="2.23268">
        <ele>76.08</ele>
        <time>2022-05-11T13:17:23Z</time>
      </trkpt>
      <trkpt lat="50.0841" lon="2.23273">
        <ele>75.6</ele>
        <time>2022-05-11T13:17:35Z</time>
      </trkpt>
      <trkpt lat="50.08401" lon="2.23281">
        <ele>73.68</ele>
        <time>2022-05-11T13:17:47Z</time>
      </trkpt>
      <trkpt lat="50.08393" lon="2.23296">
        <ele>73.68</ele>
        <time>2022-05-11T13:17:58Z</time>
      </trkpt>
      <trkpt lat="50.0839" lon="2.2331">
        <ele>75.6</ele>
        <time>2022-05-11T13:18:11Z</time>
      </trkpt>
      <trkpt lat="50.0839" lon="2.2331">
        <ele>76.08</ele>
        <time>2022-05-11T13:18:27Z</time>
      </trkpt>
      <trkpt lat="50.0839" lon="2.23309">
        <ele>76.56</ele>
        <time>2022-05-11T13:18:43Z</time>
      </trkpt>
      <trkpt lat="50.08389" lon="2.23308">
        <ele>77.04</ele>
        <time>2022-05-11T13:19:05Z</time>
      </trkpt>
      <trkpt lat="50.08389" lon="2.23307">
        <ele>78</ele>
        <time>2022-05-11T13:19:24Z</time>
      </trkpt>
      <trkpt lat="50.08389" lon="2.23306">
        <ele>78.48</ele>
        <time>2022-05-11T13:19:40Z</time>
      </trkpt>
      <trkpt lat="50.08392" lon="2.23301">
        <ele>78.48</ele>
        <time>2022-05-11T13:19:52Z</time>
      </trkpt>
      <trkpt lat="50.08393" lon="2.23295">
        <ele>78.97</ele>
        <time>2022-05-11T13:20:05Z</time>
      </trkpt>
      <trkpt lat="50.08393" lon="2.23294">
        <ele>78.97</ele>
        <time>2022-05-11T13:20:08Z</time>
      </trkpt>
      <trkpt lat="50.08402" lon="2.23295">
        <ele>77.04</ele>
        <time>2022-05-11T13:20:19Z</time>
      </trkpt>
      <trkpt lat="50.08404" lon="2.23297">
        <ele>76.08</ele>
        <time>2022-05-11T13:20:21Z</time>
      </trkpt>
      <trkpt lat="50.08412" lon="2.23313">
        <ele>72.24</ele>
        <time>2022-05-11T13:20:33Z</time>
      </trkpt>
      <trkpt lat="50.08416" lon="2.2332">
        <ele>71.27</ele>
        <time>2022-05-11T13:20:39Z</time>
      </trkpt>
      <trkpt lat="50.08422" lon="2.23329">
        <ele>69.83</ele>
        <time>2022-05-11T13:20:46Z</time>
      </trkpt>
      <trkpt lat="50.08431" lon="2.23346">
        <ele>67.91</ele>
        <time>2022-05-11T13:20:59Z</time>
      </trkpt>
      <trkpt lat="50.08441" lon="2.23368">
        <ele>65.03</ele>
        <time>2022-05-11T13:21:12Z</time>
      </trkpt>
      <trkpt lat="50.08447" lon="2.23383">
        <ele>62.62</ele>
        <time>2022-05-11T13:21:24Z</time>
      </trkpt>
      <trkpt lat="50.08455" lon="2.234">
        <ele>61.18</ele>
        <time>2022-05-11T13:21:37Z</time>
      </trkpt>
      <trkpt lat="50.08461" lon="2.23417">
        <ele>61.18</ele>
        <time>2022-05-11T13:21:50Z</time>
      </trkpt>
      <trkpt lat="50.08467" lon="2.23426">
        <ele>61.18</ele>
        <time>2022-05-11T13:22:01Z</time>
      </trkpt>
      <trkpt lat="50.08482" lon="2.23437">
        <ele>69.83</ele>
        <time>2022-05-11T13:22:14Z</time>
      </trkpt>
      <trkpt lat="50.08491" lon="2.23445">
        <ele>72.72</ele>
        <time>2022-05-11T13:22:26Z</time>
      </trkpt>
      <trkpt lat="50.08491" lon="2.23447">
        <ele>73.68</ele>
        <time>2022-05-11T13:22:28Z</time>
      </trkpt>
      <trkpt lat="50.08505" lon="2.23456">
        <ele>76.08</ele>
        <time>2022-05-11T13:22:41Z</time>
      </trkpt>
      <trkpt lat="50.08514" lon="2.23464">
        <ele>79.45</ele>
        <time>2022-05-11T13:22:53Z</time>
      </trkpt>
      <trkpt lat="50.08529" lon="2.23472">
        <ele>81.85</ele>
        <time>2022-05-11T13:23:06Z</time>
      </trkpt>
      <trkpt lat="50.08543" lon="2.23476">
        <ele>84.73</ele>
        <time>2022-05-11T13:23:19Z</time>
      </trkpt>
      <trkpt lat="50.08555" lon="2.23479">
        <ele>85.21</ele>
        <time>2022-05-11T13:23:31Z</time>
      </trkpt>
      <trkpt lat="50.08565" lon="2.23479">
        <ele>82.81</ele>
        <time>2022-05-11T13:23:43Z</time>
      </trkpt>
      <trkpt lat="50.0858" lon="2.23479">
        <ele>83.77</ele>
        <time>2022-05-11T13:23:56Z</time>
      </trkpt>
      <trkpt lat="50.08583" lon="2.23479">
        <ele>84.25</ele>
        <time>2022-05-11T13:23:59Z</time>
      </trkpt>
      <trkpt lat="50.08601" lon="2.23466">
        <ele>88.1</ele>
        <time>2022-05-11T13:24:14Z</time>
      </trkpt>
      <trkpt lat="50.08606" lon="2.2346">
        <ele>89.54</ele>
        <time>2022-05-11T13:24:20Z</time>
      </trkpt>
      <trkpt lat="50.08617" lon="2.23448">
        <ele>91.94</ele>
        <time>2022-05-11T13:24:32Z</time>
      </trkpt>
      <trkpt lat="50.08623" lon="2.23438">
        <ele>90.02</ele>
        <time>2022-05-11T13:24:44Z</time>
      </trkpt>
      <trkpt lat="50.08623" lon="2.23428">
        <ele>90.98</ele>
        <time>2022-05-11T13:24:55Z</time>
      </trkpt>
      <trkpt lat="50.08625" lon="2.2343">
        <ele>90.5</ele>
        <time>2022-05-11T13:25:07Z</time>
      </trkpt>
      <trkpt lat="50.08625" lon="2.2343">
        <ele>90.98</ele>
        <time>2022-05-11T13:25:24Z</time>
      </trkpt>
      <trkpt lat="50.08625" lon="2.23431">
        <ele>91.46</ele>
        <time>2022-05-11T13:25:43Z</time>
      </trkpt>
      <trkpt lat="50.08625" lon="2.2343">
        <ele>91.46</ele>
        <time>2022-05-11T13:26:07Z</time>
      </trkpt>
      <trkpt lat="50.08625" lon="2.2343">
        <ele>91.94</ele>
        <time>2022-05-11T13:26:27Z</time>
      </trkpt>
      <trkpt lat="50.08625" lon="2.23431">
        <ele>92.9</ele>
        <time>2022-05-11T13:26:48Z</time>
      </trkpt>
      <trkpt lat="50.08627" lon="2.2343">
        <ele>93.87</ele>
        <time>2022-05-11T13:27:01Z</time>
      </trkpt>
      <trkpt lat="50.08631" lon="2.23422">
        <ele>93.39</ele>
        <time>2022-05-11T13:27:06Z</time>
      </trkpt>
      <trkpt lat="50.08639" lon="2.23408">
        <ele>91.46</ele>
        <time>2022-05-11T13:27:17Z</time>
      </trkpt>
      <trkpt lat="50.08644" lon="2.23393">
        <ele>88.1</ele>
        <time>2022-05-11T13:27:27Z</time>
      </trkpt>
      <trkpt lat="50.08651" lon="2.23373">
        <ele>85.69</ele>
        <time>2022-05-11T13:27:38Z</time>
      </trkpt>
      <trkpt lat="50.08658" lon="2.23348">
        <ele>81.37</ele>
        <time>2022-05-11T13:27:51Z</time>
      </trkpt>
      <trkpt lat="50.08668" lon="2.23332">
        <ele>77.52</ele>
        <time>2022-05-11T13:28:04Z</time>
      </trkpt>
      <trkpt lat="50.08682" lon="2.23311">
        <ele>74.16</ele>
        <time>2022-05-11T13:28:19Z</time>
      </trkpt>
      <trkpt lat="50.0869" lon="2.23301">
        <ele>74.64</ele>
        <time>2022-05-11T13:28:28Z</time>
      </trkpt>
      <trkpt lat="50.08695" lon="2.233">
        <ele>76.56</ele>
        <time>2022-05-11T13:28:32Z</time>
      </trkpt>
      <trkpt lat="50.08713" lon="2.23304">
        <ele>78</ele>
        <time>2022-05-11T13:28:46Z</time>
      </trkpt>
      <trkpt lat="50.08731" lon="2.23308">
        <ele>78.48</ele>
        <time>2022-05-11T13:29:02Z</time>
      </trkpt>
      <trkpt lat="50.08745" lon="2.2331">
        <ele>77.52</ele>
        <time>2022-05-11T13:29:14Z</time>
      </trkpt>
      <trkpt lat="50.08757" lon="2.23314">
        <ele>75.6</ele>
        <time>2022-05-11T13:29:25Z</time>
      </trkpt>
      <trkpt lat="50.08773" lon="2.23322">
        <ele>74.64</ele>
        <time>2022-05-11T13:29:40Z</time>
      </trkpt>
      <trkpt lat="50.08785" lon="2.23332">
        <ele>71.76</ele>
        <time>2022-05-11T13:29:51Z</time>
      </trkpt>
      <trkpt lat="50.08804" lon="2.23356">
        <ele>77.52</ele>
        <time>2022-05-11T13:30:07Z</time>
      </trkpt>
      <trkpt lat="50.08817" lon="2.23382">
        <ele>78.48</ele>
        <time>2022-05-11T13:30:23Z</time>
      </trkpt>
      <trkpt lat="50.0883" lon="2.23412">
        <ele>78</ele>
        <time>2022-05-11T13:30:39Z</time>
      </trkpt>
      <trkpt lat="50.08838" lon="2.23443">
        <ele>75.6</ele>
        <time>2022-05-11T13:30:56Z</time>
      </trkpt>
      <trkpt lat="50.08846" lon="2.23469">
        <ele>73.2</ele>
        <time>2022-05-11T13:31:11Z</time>
      </trkpt>
      <trkpt lat="50.08856" lon="2.23497">
        <ele>75.6</ele>
        <time>2022-05-11T13:31:26Z</time>
      </trkpt>
      <trkpt lat="50.08864" lon="2.23521">
        <ele>75.12</ele>
        <time>2022-05-11T13:31:39Z</time>
      </trkpt>
      <trkpt lat="50.08866" lon="2.23527">
        <ele>75.12</ele>
        <time>2022-05-11T13:31:42Z</time>
      </trkpt>
      <trkpt lat="50.08876" lon="2.23545">
        <ele>73.68</ele>
        <time>2022-05-11T13:31:54Z</time>
      </trkpt>
      <trkpt lat="50.08885" lon="2.23571">
        <ele>74.16</ele>
        <time>2022-05-11T13:32:08Z</time>
      </trkpt>
      <trkpt lat="50.08894" lon="2.23588">
        <ele>74.64</ele>
        <time>2022-05-11T13:32:20Z</time>
      </trkpt>
      <trkpt lat="50.08904" lon="2.23604">
        <ele>73.68</ele>
        <time>2022-05-11T13:32:32Z</time>
      </trkpt>
      <trkpt lat="50.08918" lon="2.23622">
        <ele>74.16</ele>
        <time>2022-05-11T13:32:47Z</time>
      </trkpt>
      <trkpt lat="50.08929" lon="2.23638">
        <ele>77.52</ele>
        <time>2022-05-11T13:32:58Z</time>
      </trkpt>
      <trkpt lat="50.08942" lon="2.23653">
        <ele>83.29</ele>
        <time>2022-05-11T13:33:11Z</time>
      </trkpt>
      <trkpt lat="50.08949" lon="2.23661">
        <ele>82.81</ele>
        <time>2022-05-11T13:33:21Z</time>
      </trkpt>
      <trkpt lat="50.0896" lon="2.23677">
        <ele>81.37</ele>
        <time>2022-05-11T13:33:34Z</time>
      </trkpt>
      <trkpt lat="50.08969" lon="2.2369">
        <ele>82.81</ele>
        <time>2022-05-11T13:33:44Z</time>
      </trkpt>
      <trkpt lat="50.08984" lon="2.23699">
        <ele>82.33</ele>
        <time>2022-05-11T13:33:56Z</time>
      </trkpt>
      <trkpt lat="50.08995" lon="2.23706">
        <ele>82.33</ele>
        <time>2022-05-11T13:34:08Z</time>
      </trkpt>
      <trkpt lat="50.09007" lon="2.23715">
        <ele>86.18</ele>
        <time>2022-05-11T13:34:20Z</time>
      </trkpt>
      <trkpt lat="50.09019" lon="2.2372">
        <ele>87.62</ele>
        <time>2022-05-11T13:34:31Z</time>
      </trkpt>
      <trkpt lat="50.09035" lon="2.23725">
        <ele>87.62</ele>
        <time>2022-05-11T13:34:46Z</time>
      </trkpt>
      <trkpt lat="50.09051" lon="2.23737">
        <ele>90.5</ele>
        <time>2022-05-11T13:34:57Z</time>
      </trkpt>
      <trkpt lat="50.09054" lon="2.23741">
        <ele>90.02</ele>
        <time>2022-05-11T13:35:08Z</time>
      </trkpt>
      <trkpt lat="50.09056" lon="2.23743">
        <ele>91.94</ele>
        <time>2022-05-11T13:35:30Z</time>
      </trkpt>
      <trkpt lat="50.09055" lon="2.23745">
        <ele>92.9</ele>
        <time>2022-05-11T13:35:48Z</time>
      </trkpt>
      <trkpt lat="50.09056" lon="2.23746">
        <ele>95.31</ele>
        <time>2022-05-11T13:36:06Z</time>
      </trkpt>
      <trkpt lat="50.09058" lon="2.23748">
        <ele>94.83</ele>
        <time>2022-05-11T13:36:18Z</time>
      </trkpt>
      <trkpt lat="50.09065" lon="2.2375">
        <ele>95.31</ele>
        <time>2022-05-11T13:36:28Z</time>
      </trkpt>
      <trkpt lat="50.09075" lon="2.2376">
        <ele>94.83</ele>
        <time>2022-05-11T13:36:39Z</time>
      </trkpt>
      <trkpt lat="50.09085" lon="2.23771">
        <ele>96.27</ele>
        <time>2022-05-11T13:36:50Z</time>
      </trkpt>
      <trkpt lat="50.09097" lon="2.23783">
        <ele>100.11</ele>
        <time>2022-05-11T13:37:00Z</time>
      </trkpt>
      <trkpt lat="50.09102" lon="2.23787">
        <ele>103.48</ele>
        <time>2022-05-11T13:37:06Z</time>
      </trkpt>
      <trkpt lat="50.09106" lon="2.23783">
        <ele>104.44</ele>
        <time>2022-05-11T13:37:11Z</time>
      </trkpt>
      <trkpt lat="50.09106" lon="2.23776">
        <ele>103.96</ele>
        <time>2022-05-11T13:37:16Z</time>
      </trkpt>
      <trkpt lat="50.09102" lon="2.23762">
        <ele>104.44</ele>
        <time>2022-05-11T13:37:27Z</time>
      </trkpt>
      <trkpt lat="50.09107" lon="2.2375">
        <ele>104.44</ele>
        <time>2022-05-11T13:37:39Z</time>
      </trkpt>
      <trkpt lat="50.09117" lon="2.23748">
        <ele>107.32</ele>
        <time>2022-05-11T13:37:50Z</time>
      </trkpt>
      <trkpt lat="50.09129" lon="2.23747">
        <ele>107.81</ele>
        <time>2022-05-11T13:38:02Z</time>
      </trkpt>
      <trkpt lat="50.09142" lon="2.2375">
        <ele>108.29</ele>
        <time>2022-05-11T13:38:14Z</time>
      </trkpt>
      <trkpt lat="50.09152" lon="2.23751">
        <ele>109.73</ele>
        <time>2022-05-11T13:38:25Z</time>
      </trkpt>
      <trkpt lat="50.09163" lon="2.23746">
        <ele>108.77</ele>
        <time>2022-05-11T13:38:37Z</time>
      </trkpt>
      <trkpt lat="50.09174" lon="2.23742">
        <ele>107.81</ele>
        <time>2022-05-11T13:38:50Z</time>
      </trkpt>
      <trkpt lat="50.09184" lon="2.23739">
        <ele>108.77</ele>
        <time>2022-05-11T13:39:02Z</time>
      </trkpt>
      <trkpt lat="50.092" lon="2.23733">
        <ele>109.25</ele>
        <time>2022-05-11T13:39:19Z</time>
      </trkpt>
      <trkpt lat="50.09215" lon="2.23727">
        <ele>110.69</ele>
        <time>2022-05-11T13:39:33Z</time>
      </trkpt>
      <trkpt lat="50.09219" lon="2.23727">
        <ele>111.65</ele>
        <time>2022-05-11T13:39:36Z</time>
      </trkpt>
      <trkpt lat="50.09235" lon="2.23726">
        <ele>114.05</ele>
        <time>2022-05-11T13:39:49Z</time>
      </trkpt>
      <trkpt lat="50.09249" lon="2.2373">
        <ele>117.42</ele>
        <time>2022-05-11T13:40:01Z</time>
      </trkpt>
      <trkpt lat="50.09266" lon="2.23728">
        <ele>121.74</ele>
        <time>2022-05-11T13:40:14Z</time>
      </trkpt>
      <trkpt lat="50.09281" lon="2.23719">
        <ele>124.63</ele>
        <time>2022-05-11T13:40:26Z</time>
      </trkpt>
      <trkpt lat="50.09295" lon="2.23707">
        <ele>126.55</ele>
        <time>2022-05-11T13:40:39Z</time>
      </trkpt>
      <trkpt lat="50.09297" lon="2.23703">
        <ele>127.51</ele>
        <time>2022-05-11T13:40:42Z</time>
      </trkpt>
      <trkpt lat="50.0931" lon="2.2369">
        <ele>129.43</ele>
        <time>2022-05-11T13:40:56Z</time>
      </trkpt>
      <trkpt lat="50.09323" lon="2.23686">
        <ele>130.4</ele>
        <time>2022-05-11T13:41:08Z</time>
      </trkpt>
      <trkpt lat="50.09331" lon="2.23688">
        <ele>130.88</ele>
        <time>2022-05-11T13:41:15Z</time>
      </trkpt>
      <trkpt lat="50.09345" lon="2.2369">
        <ele>129.92</ele>
        <time>2022-05-11T13:41:27Z</time>
      </trkpt>
      <trkpt lat="50.09359" lon="2.23694">
        <ele>129.92</ele>
        <time>2022-05-11T13:41:38Z</time>
      </trkpt>
      <trkpt lat="50.09378" lon="2.23692">
        <ele>131.36</ele>
        <time>2022-05-11T13:41:53Z</time>
      </trkpt>
      <trkpt lat="50.09393" lon="2.2369">
        <ele>131.84</ele>
        <time>2022-05-11T13:42:06Z</time>
      </trkpt>
      <trkpt lat="50.09408" lon="2.23682">
        <ele>130.4</ele>
        <time>2022-05-11T13:42:19Z</time>
      </trkpt>
      <trkpt lat="50.09416" lon="2.23677">
        <ele>129.92</ele>
        <time>2022-05-11T13:42:26Z</time>
      </trkpt>
      <trkpt lat="50.09431" lon="2.23666">
        <ele>129.92</ele>
        <time>2022-05-11T13:42:41Z</time>
      </trkpt>
      <trkpt lat="50.09445" lon="2.23657">
        <ele>131.84</ele>
        <time>2022-05-11T13:42:53Z</time>
      </trkpt>
      <trkpt lat="50.09466" lon="2.23655">
        <ele>134.24</ele>
        <time>2022-05-11T13:43:08Z</time>
      </trkpt>
      <trkpt lat="50.09485" lon="2.23658">
        <ele>136.64</ele>
        <time>2022-05-11T13:43:21Z</time>
      </trkpt>
      <trkpt lat="50.09504" lon="2.2367">
        <ele>138.09</ele>
        <time>2022-05-11T13:43:36Z</time>
      </trkpt>
      <trkpt lat="50.0952" lon="2.23685">
        <ele>140.01</ele>
        <time>2022-05-11T13:43:49Z</time>
      </trkpt>
      <trkpt lat="50.09523" lon="2.23688">
        <ele>140.49</ele>
        <time>2022-05-11T13:43:52Z</time>
      </trkpt>
      <trkpt lat="50.09534" lon="2.23694">
        <ele>140.01</ele>
        <time>2022-05-11T13:44:05Z</time>
      </trkpt>
      <trkpt lat="50.09549" lon="2.23709">
        <ele>139.05</ele>
        <time>2022-05-11T13:44:20Z</time>
      </trkpt>
      <trkpt lat="50.09555" lon="2.23715">
        <ele>140.01</ele>
        <time>2022-05-11T13:44:26Z</time>
      </trkpt>
      <trkpt lat="50.09562" lon="2.23722">
        <ele>139.53</ele>
        <time>2022-05-11T13:44:32Z</time>
      </trkpt>
      <trkpt lat="50.09569" lon="2.23729">
        <ele>140.49</ele>
        <time>2022-05-11T13:44:39Z</time>
      </trkpt>
      <trkpt lat="50.09581" lon="2.23741">
        <ele>140.49</ele>
        <time>2022-05-11T13:44:51Z</time>
      </trkpt>
      <trkpt lat="50.09596" lon="2.23754">
        <ele>139.53</ele>
        <time>2022-05-11T13:45:05Z</time>
      </trkpt>
      <trkpt lat="50.09606" lon="2.23761">
        <ele>139.05</ele>
        <time>2022-05-11T13:45:14Z</time>
      </trkpt>
      <trkpt lat="50.09609" lon="2.23761">
        <ele>139.05</ele>
        <time>2022-05-11T13:45:17Z</time>
      </trkpt>
      <trkpt lat="50.09613" lon="2.23764">
        <ele>139.05</ele>
        <time>2022-05-11T13:45:20Z</time>
      </trkpt>
      <trkpt lat="50.09628" lon="2.23775">
        <ele>139.53</ele>
        <time>2022-05-11T13:45:33Z</time>
      </trkpt>
      <trkpt lat="50.09634" lon="2.23781">
        <ele>139.53</ele>
        <time>2022-05-11T13:45:38Z</time>
      </trkpt>
      <trkpt lat="50.0965" lon="2.23795">
        <ele>139.53</ele>
        <time>2022-05-11T13:45:53Z</time>
      </trkpt>
      <trkpt lat="50.09664" lon="2.2381">
        <ele>140.01</ele>
        <time>2022-05-11T13:46:06Z</time>
      </trkpt>
      <trkpt lat="50.09674" lon="2.23819">
        <ele>139.05</ele>
        <time>2022-05-11T13:46:17Z</time>
      </trkpt>
      <trkpt lat="50.09684" lon="2.2383">
        <ele>139.05</ele>
        <time>2022-05-11T13:46:27Z</time>
      </trkpt>
      <trkpt lat="50.09695" lon="2.23834">
        <ele>138.09</ele>
        <time>2022-05-11T13:46:40Z</time>
      </trkpt>
      <trkpt lat="50.09701" lon="2.2384">
        <ele>139.05</ele>
        <time>2022-05-11T13:46:51Z</time>
      </trkpt>
      <trkpt lat="50.09699" lon="2.2384">
        <ele>138.57</ele>
        <time>2022-05-11T13:47:07Z</time>
      </trkpt>
      <trkpt lat="50.09701" lon="2.2384">
        <ele>138.57</ele>
        <time>2022-05-11T13:47:13Z</time>
      </trkpt>
      <trkpt lat="50.09702" lon="2.23842">
        <ele>138.57</ele>
        <time>2022-05-11T13:47:15Z</time>
      </trkpt>
      <trkpt lat="50.09711" lon="2.23847">
        <ele>136.64</ele>
        <time>2022-05-11T13:47:26Z</time>
      </trkpt>
      <trkpt lat="50.09724" lon="2.23858">
        <ele>134.24</ele>
        <time>2022-05-11T13:47:39Z</time>
      </trkpt>
      <trkpt lat="50.09741" lon="2.23868">
        <ele>131.84</ele>
        <time>2022-05-11T13:47:53Z</time>
      </trkpt>
      <trkpt lat="50.09751" lon="2.23875">
        <ele>134.72</ele>
        <time>2022-05-11T13:48:02Z</time>
      </trkpt>
      <trkpt lat="50.09754" lon="2.23875">
        <ele>138.57</ele>
        <time>2022-05-11T13:48:14Z</time>
      </trkpt>
      <trkpt lat="50.09754" lon="2.23875">
        <ele>139.53</ele>
        <time>2022-05-11T13:48:25Z</time>
      </trkpt>
      <trkpt lat="50.09754" lon="2.23874">
        <ele>140.49</ele>
        <time>2022-05-11T13:48:40Z</time>
      </trkpt>
      <trkpt lat="50.09755" lon="2.23873">
        <ele>142.41</ele>
        <time>2022-05-11T13:49:03Z</time>
      </trkpt>
      <trkpt lat="50.09756" lon="2.23873">
        <ele>142.41</ele>
        <time>2022-05-11T13:49:19Z</time>
      </trkpt>
      <trkpt lat="50.09756" lon="2.23873">
        <ele>143.37</ele>
        <time>2022-05-11T13:49:33Z</time>
      </trkpt>
      <trkpt lat="50.0976" lon="2.23874">
        <ele>142.41</ele>
        <time>2022-05-11T13:49:38Z</time>
      </trkpt>
      <trkpt lat="50.09771" lon="2.23875">
        <ele>140.01</ele>
        <time>2022-05-11T13:49:50Z</time>
      </trkpt>
      <trkpt lat="50.09784" lon="2.23877">
        <ele>139.05</ele>
        <time>2022-05-11T13:50:02Z</time>
      </trkpt>
      <trkpt lat="50.09797" lon="2.23882">
        <ele>138.57</ele>
        <time>2022-05-11T13:50:13Z</time>
      </trkpt>
      <trkpt lat="50.09811" lon="2.23886">
        <ele>138.57</ele>
        <time>2022-05-11T13:50:24Z</time>
      </trkpt>
      <trkpt lat="50.09817" lon="2.23888">
        <ele>138.57</ele>
        <time>2022-05-11T13:50:28Z</time>
      </trkpt>
      <trkpt lat="50.09826" lon="2.23893">
        <ele>138.57</ele>
        <time>2022-05-11T13:50:35Z</time>
      </trkpt>
      <trkpt lat="50.09836" lon="2.239">
        <ele>138.57</ele>
        <time>2022-05-11T13:50:45Z</time>
      </trkpt>
      <trkpt lat="50.09848" lon="2.23908">
        <ele>139.05</ele>
        <time>2022-05-11T13:50:56Z</time>
      </trkpt>
      <trkpt lat="50.09862" lon="2.23921">
        <ele>140.01</ele>
        <time>2022-05-11T13:51:09Z</time>
      </trkpt>
      <trkpt lat="50.09864" lon="2.23923">
        <ele>140.49</ele>
        <time>2022-05-11T13:51:11Z</time>
      </trkpt>
      <trkpt lat="50.09877" lon="2.23938">
        <ele>141.93</ele>
        <time>2022-05-11T13:51:25Z</time>
      </trkpt>
      <trkpt lat="50.09881" lon="2.23942">
        <ele>141.93</ele>
        <time>2022-05-11T13:51:29Z</time>
      </trkpt>
      <trkpt lat="50.09894" lon="2.23957">
        <ele>141.93</ele>
        <time>2022-05-11T13:51:43Z</time>
      </trkpt>
      <trkpt lat="50.09906" lon="2.23969">
        <ele>142.89</ele>
        <time>2022-05-11T13:51:56Z</time>
      </trkpt>
      <trkpt lat="50.09916" lon="2.23978">
        <ele>142.89</ele>
        <time>2022-05-11T13:52:07Z</time>
      </trkpt>
      <trkpt lat="50.09918" lon="2.2398">
        <ele>142.89</ele>
        <time>2022-05-11T13:52:09Z</time>
      </trkpt>
      <trkpt lat="50.09929" lon="2.23991">
        <ele>142.89</ele>
        <time>2022-05-11T13:52:21Z</time>
      </trkpt>
      <trkpt lat="50.0994" lon="2.24">
        <ele>141.93</ele>
        <time>2022-05-11T13:52:32Z</time>
      </trkpt>
      <trkpt lat="50.09952" lon="2.24013">
        <ele>141.93</ele>
        <time>2022-05-11T13:52:46Z</time>
      </trkpt>
      <trkpt lat="50.09961" lon="2.2402">
        <ele>140.49</ele>
        <time>2022-05-11T13:52:57Z</time>
      </trkpt>
      <trkpt lat="50.09971" lon="2.2403">
        <ele>140.49</ele>
        <time>2022-05-11T13:53:08Z</time>
      </trkpt>
      <trkpt lat="50.09984" lon="2.2404">
        <ele>141.45</ele>
        <time>2022-05-11T13:53:20Z</time>
      </trkpt>
      <trkpt lat="50.09997" lon="2.24049">
        <ele>141.45</ele>
        <time>2022-05-11T13:53:32Z</time>
      </trkpt>
      <trkpt lat="50.10011" lon="2.24059">
        <ele>143.37</ele>
        <time>2022-05-11T13:53:45Z</time>
      </trkpt>
      <trkpt lat="50.10024" lon="2.24066">
        <ele>143.37</ele>
        <time>2022-05-11T13:53:57Z</time>
      </trkpt>
      <trkpt lat="50.10037" lon="2.24073">
        <ele>143.37</ele>
        <time>2022-05-11T13:54:09Z</time>
      </trkpt>
      <trkpt lat="50.10051" lon="2.24081">
        <ele>143.37</ele>
        <time>2022-05-11T13:54:21Z</time>
      </trkpt>
      <trkpt lat="50.10065" lon="2.24089">
        <ele>143.85</ele>
        <time>2022-05-11T13:54:34Z</time>
      </trkpt>
      <trkpt lat="50.10077" lon="2.24098">
        <ele>144.34</ele>
        <time>2022-05-11T13:54:46Z</time>
      </trkpt>
      <trkpt lat="50.10091" lon="2.24109">
        <ele>144.34</ele>
        <time>2022-05-11T13:54:59Z</time>
      </trkpt>
      <trkpt lat="50.10103" lon="2.24119">
        <ele>144.82</ele>
        <time>2022-05-11T13:55:10Z</time>
      </trkpt>
      <trkpt lat="50.10113" lon="2.24128">
        <ele>145.3</ele>
        <time>2022-05-11T13:55:20Z</time>
      </trkpt>
      <trkpt lat="50.10126" lon="2.24141">
        <ele>146.26</ele>
        <time>2022-05-11T13:55:33Z</time>
      </trkpt>
      <trkpt lat="50.10131" lon="2.24148">
        <ele>146.74</ele>
        <time>2022-05-11T13:55:39Z</time>
      </trkpt>
      <trkpt lat="50.10143" lon="2.2416">
        <ele>146.74</ele>
        <time>2022-05-11T13:55:51Z</time>
      </trkpt>
      <trkpt lat="50.10154" lon="2.24174">
        <ele>148.18</ele>
        <time>2022-05-11T13:56:02Z</time>
      </trkpt>
      <trkpt lat="50.10166" lon="2.24187">
        <ele>148.66</ele>
        <time>2022-05-11T13:56:14Z</time>
      </trkpt>
      <trkpt lat="50.10179" lon="2.242">
        <ele>150.58</ele>
        <time>2022-05-11T13:56:26Z</time>
      </trkpt>
      <trkpt lat="50.1019" lon="2.24209">
        <ele>149.62</ele>
        <time>2022-05-11T13:56:37Z</time>
      </trkpt>
      <trkpt lat="50.10203" lon="2.24219">
        <ele>148.66</ele>
        <time>2022-05-11T13:56:51Z</time>
      </trkpt>
      <trkpt lat="50.10215" lon="2.24226">
        <ele>148.18</ele>
        <time>2022-05-11T13:57:02Z</time>
      </trkpt>
      <trkpt lat="50.10216" lon="2.24227">
        <ele>148.18</ele>
        <time>2022-05-11T13:57:03Z</time>
      </trkpt>
      <trkpt lat="50.10222" lon="2.2423">
        <ele>148.66</ele>
        <time>2022-05-11T13:57:08Z</time>
      </trkpt>
      <trkpt lat="50.1024" lon="2.24239">
        <ele>147.7</ele>
        <time>2022-05-11T13:57:24Z</time>
      </trkpt>
      <trkpt lat="50.10257" lon="2.24244">
        <ele>147.7</ele>
        <time>2022-05-11T13:57:38Z</time>
      </trkpt>
      <trkpt lat="50.10271" lon="2.24251">
        <ele>147.7</ele>
        <time>2022-05-11T13:57:50Z</time>
      </trkpt>
      <trkpt lat="50.10285" lon="2.24256">
        <ele>146.74</ele>
        <time>2022-05-11T13:58:02Z</time>
      </trkpt>
      <trkpt lat="50.10304" lon="2.24266">
        <ele>145.78</ele>
        <time>2022-05-11T13:58:18Z</time>
      </trkpt>
      <trkpt lat="50.10317" lon="2.24273">
        <ele>144.82</ele>
        <time>2022-05-11T13:58:30Z</time>
      </trkpt>
      <trkpt lat="50.10331" lon="2.24281">
        <ele>144.34</ele>
        <time>2022-05-11T13:58:42Z</time>
      </trkpt>
      <trkpt lat="50.10332" lon="2.24282">
        <ele>143.85</ele>
        <time>2022-05-11T13:58:43Z</time>
      </trkpt>
      <trkpt lat="50.10335" lon="2.24285">
        <ele>143.85</ele>
        <time>2022-05-11T13:58:46Z</time>
      </trkpt>
      <trkpt lat="50.10349" lon="2.24294">
        <ele>143.37</ele>
        <time>2022-05-11T13:58:59Z</time>
      </trkpt>
      <trkpt lat="50.10357" lon="2.243">
        <ele>143.85</ele>
        <time>2022-05-11T13:59:06Z</time>
      </trkpt>
      <trkpt lat="50.10365" lon="2.24305">
        <ele>143.85</ele>
        <time>2022-05-11T13:59:13Z</time>
      </trkpt>
      <trkpt lat="50.10379" lon="2.24315">
        <ele>143.85</ele>
        <time>2022-05-11T13:59:26Z</time>
      </trkpt>
      <trkpt lat="50.10393" lon="2.24325">
        <ele>144.82</ele>
        <time>2022-05-11T13:59:39Z</time>
      </trkpt>
      <trkpt lat="50.10407" lon="2.24337">
        <ele>144.34</ele>
        <time>2022-05-11T13:59:52Z</time>
      </trkpt>
      <trkpt lat="50.10422" lon="2.24349">
        <ele>142.41</ele>
        <time>2022-05-11T14:00:05Z</time>
      </trkpt>
      <trkpt lat="50.10433" lon="2.24361">
        <ele>142.41</ele>
        <time>2022-05-11T14:00:17Z</time>
      </trkpt>
      <trkpt lat="50.10441" lon="2.24378">
        <ele>141.93</ele>
        <time>2022-05-11T14:00:29Z</time>
      </trkpt>
      <trkpt lat="50.10443" lon="2.24397">
        <ele>142.41</ele>
        <time>2022-05-11T14:00:39Z</time>
      </trkpt>
      <trkpt lat="50.10444" lon="2.24408">
        <ele>142.89</ele>
        <time>2022-05-11T14:00:45Z</time>
      </trkpt>
      <trkpt lat="50.10449" lon="2.24433">
        <ele>144.34</ele>
        <time>2022-05-11T14:00:59Z</time>
      </trkpt>
      <trkpt lat="50.10459" lon="2.24453">
        <ele>144.82</ele>
        <time>2022-05-11T14:01:13Z</time>
      </trkpt>
      <trkpt lat="50.10471" lon="2.24471">
        <ele>146.26</ele>
        <time>2022-05-11T14:01:26Z</time>
      </trkpt>
      <trkpt lat="50.10481" lon="2.24488">
        <ele>147.22</ele>
        <time>2022-05-11T14:01:38Z</time>
      </trkpt>
      <trkpt lat="50.10495" lon="2.24504">
        <ele>147.7</ele>
        <time>2022-05-11T14:01:52Z</time>
      </trkpt>
      <trkpt lat="50.10497" lon="2.24507">
        <ele>148.18</ele>
        <time>2022-05-11T14:01:54Z</time>
      </trkpt>
      <trkpt lat="50.105" lon="2.24529">
        <ele>149.62</ele>
        <time>2022-05-11T14:02:08Z</time>
      </trkpt>
      <trkpt lat="50.10497" lon="2.2453">
        <ele>148.66</ele>
        <time>2022-05-11T14:02:19Z</time>
      </trkpt>
      <trkpt lat="50.10498" lon="2.24531">
        <ele>149.14</ele>
        <time>2022-05-11T14:02:32Z</time>
      </trkpt>
      <trkpt lat="50.10497" lon="2.24532">
        <ele>149.62</ele>
        <time>2022-05-11T14:02:48Z</time>
      </trkpt>
      <trkpt lat="50.10495" lon="2.2453">
        <ele>147.22</ele>
        <time>2022-05-11T14:03:11Z</time>
      </trkpt>
      <trkpt lat="50.10494" lon="2.24531">
        <ele>145.78</ele>
        <time>2022-05-11T14:03:27Z</time>
      </trkpt>
      <trkpt lat="50.10493" lon="2.24532">
        <ele>145.3</ele>
        <time>2022-05-11T14:03:45Z</time>
      </trkpt>
      <trkpt lat="50.10492" lon="2.24534">
        <ele>145.3</ele>
        <time>2022-05-11T14:03:48Z</time>
      </trkpt>
      <trkpt lat="50.10486" lon="2.24558">
        <ele>144.82</ele>
        <time>2022-05-11T14:04:02Z</time>
      </trkpt>
      <trkpt lat="50.10476" lon="2.24584">
        <ele>145.3</ele>
        <time>2022-05-11T14:04:17Z</time>
      </trkpt>
      <trkpt lat="50.10469" lon="2.24606">
        <ele>146.74</ele>
        <time>2022-05-11T14:04:30Z</time>
      </trkpt>
      <trkpt lat="50.10462" lon="2.24628">
        <ele>148.18</ele>
        <time>2022-05-11T14:04:42Z</time>
      </trkpt>
      <trkpt lat="50.10455" lon="2.24659">
        <ele>148.66</ele>
        <time>2022-05-11T14:04:57Z</time>
      </trkpt>
      <trkpt lat="50.10451" lon="2.24698">
        <ele>149.62</ele>
        <time>2022-05-11T14:05:15Z</time>
      </trkpt>
      <trkpt lat="50.10451" lon="2.24735">
        <ele>152.51</ele>
        <time>2022-05-11T14:05:32Z</time>
      </trkpt>
      <trkpt lat="50.10455" lon="2.2477">
        <ele>153.47</ele>
        <time>2022-05-11T14:05:49Z</time>
      </trkpt>
      <trkpt lat="50.10466" lon="2.248">
        <ele>154.43</ele>
        <time>2022-05-11T14:06:06Z</time>
      </trkpt>
      <trkpt lat="50.10477" lon="2.24826">
        <ele>154.91</ele>
        <time>2022-05-11T14:06:21Z</time>
      </trkpt>
      <trkpt lat="50.10491" lon="2.24855">
        <ele>155.39</ele>
        <time>2022-05-11T14:06:38Z</time>
      </trkpt>
      <trkpt lat="50.105" lon="2.2488">
        <ele>156.35</ele>
        <time>2022-05-11T14:06:52Z</time>
      </trkpt>
      <trkpt lat="50.10508" lon="2.2491">
        <ele>156.83</ele>
        <time>2022-05-11T14:07:08Z</time>
      </trkpt>
      <trkpt lat="50.10519" lon="2.24939">
        <ele>156.35</ele>
        <time>2022-05-11T14:07:25Z</time>
      </trkpt>
      <trkpt lat="50.10528" lon="2.24963">
        <ele>155.39</ele>
        <time>2022-05-11T14:07:39Z</time>
      </trkpt>
      <trkpt lat="50.10537" lon="2.24985">
        <ele>153.47</ele>
        <time>2022-05-11T14:07:53Z</time>
      </trkpt>
      <trkpt lat="50.10551" lon="2.25008">
        <ele>155.39</ele>
        <time>2022-05-11T14:08:08Z</time>
      </trkpt>
      <trkpt lat="50.10563" lon="2.2503">
        <ele>154.43</ele>
        <time>2022-05-11T14:08:23Z</time>
      </trkpt>
      <trkpt lat="50.10576" lon="2.25052">
        <ele>153.47</ele>
        <time>2022-05-11T14:08:37Z</time>
      </trkpt>
      <trkpt lat="50.10587" lon="2.25072">
        <ele>153.47</ele>
        <time>2022-05-11T14:08:50Z</time>
      </trkpt>
      <trkpt lat="50.10603" lon="2.25095">
        <ele>153.95</ele>
        <time>2022-05-11T14:09:06Z</time>
      </trkpt>
      <trkpt lat="50.1062" lon="2.2512">
        <ele>155.39</ele>
        <time>2022-05-11T14:09:23Z</time>
      </trkpt>
      <trkpt lat="50.10634" lon="2.25144">
        <ele>152.99</ele>
        <time>2022-05-11T14:09:39Z</time>
      </trkpt>
      <trkpt lat="50.1065" lon="2.2517">
        <ele>151.06</ele>
        <time>2022-05-11T14:09:57Z</time>
      </trkpt>
      <trkpt lat="50.10665" lon="2.25192">
        <ele>152.03</ele>
        <time>2022-05-11T14:10:11Z</time>
      </trkpt>
      <trkpt lat="50.10673" lon="2.25206">
        <ele>152.99</ele>
        <time>2022-05-11T14:10:20Z</time>
      </trkpt>
      <trkpt lat="50.10683" lon="2.25224">
        <ele>152.03</ele>
        <time>2022-05-11T14:10:33Z</time>
      </trkpt>
      <trkpt lat="50.10692" lon="2.25235">
        <ele>149.62</ele>
        <time>2022-05-11T14:10:43Z</time>
      </trkpt>
      <trkpt lat="50.10705" lon="2.2525">
        <ele>148.18</ele>
        <time>2022-05-11T14:10:56Z</time>
      </trkpt>
      <trkpt lat="50.10715" lon="2.25262">
        <ele>150.1</ele>
        <time>2022-05-11T14:11:08Z</time>
      </trkpt>
      <trkpt lat="50.10717" lon="2.25263">
        <ele>150.58</ele>
        <time>2022-05-11T14:11:17Z</time>
      </trkpt>
      <trkpt lat="50.10718" lon="2.25263">
        <ele>152.51</ele>
        <time>2022-05-11T14:11:33Z</time>
      </trkpt>
      <trkpt lat="50.10717" lon="2.25264">
        <ele>152.99</ele>
        <time>2022-05-11T14:11:44Z</time>
      </trkpt>
      <trkpt lat="50.10717" lon="2.25267">
        <ele>154.91</ele>
        <time>2022-05-11T14:12:05Z</time>
      </trkpt>
      <trkpt lat="50.10717" lon="2.25268">
        <ele>155.39</ele>
        <time>2022-05-11T14:12:25Z</time>
      </trkpt>
      <trkpt lat="50.10716" lon="2.25269">
        <ele>155.39</ele>
        <time>2022-05-11T14:12:47Z</time>
      </trkpt>
      <trkpt lat="50.10716" lon="2.2527">
        <ele>155.39</ele>
        <time>2022-05-11T14:13:07Z</time>
      </trkpt>
      <trkpt lat="50.10715" lon="2.2527">
        <ele>154.91</ele>
        <time>2022-05-11T14:13:27Z</time>
      </trkpt>
      <trkpt lat="50.10715" lon="2.25269">
        <ele>155.39</ele>
        <time>2022-05-11T14:13:45Z</time>
      </trkpt>
      <trkpt lat="50.10716" lon="2.2527">
        <ele>155.39</ele>
        <time>2022-05-11T14:13:47Z</time>
      </trkpt>
      <trkpt lat="50.10725" lon="2.25286">
        <ele>155.39</ele>
        <time>2022-05-11T14:13:59Z</time>
      </trkpt>
      <trkpt lat="50.1073" lon="2.25312">
        <ele>155.39</ele>
        <time>2022-05-11T14:14:13Z</time>
      </trkpt>
      <trkpt lat="50.10728" lon="2.2534">
        <ele>154.43</ele>
        <time>2022-05-11T14:14:28Z</time>
      </trkpt>
      <trkpt lat="50.10728" lon="2.25343">
        <ele>153.95</ele>
        <time>2022-05-11T14:14:30Z</time>
      </trkpt>
      <trkpt lat="50.1074" lon="2.25348">
        <ele>152.99</ele>
        <time>2022-05-11T14:14:42Z</time>
      </trkpt>
      <trkpt lat="50.10755" lon="2.25341">
        <ele>152.03</ele>
        <time>2022-05-11T14:14:54Z</time>
      </trkpt>
      <trkpt lat="50.10775" lon="2.25331">
        <ele>149.14</ele>
        <time>2022-05-11T14:15:10Z</time>
      </trkpt>
      <trkpt lat="50.10795" lon="2.25324">
        <ele>147.7</ele>
        <time>2022-05-11T14:15:26Z</time>
      </trkpt>
      <trkpt lat="50.10814" lon="2.25318">
        <ele>146.74</ele>
        <time>2022-05-11T14:15:40Z</time>
      </trkpt>
      <trkpt lat="50.10833" lon="2.25311">
        <ele>144.82</ele>
        <time>2022-05-11T14:15:56Z</time>
      </trkpt>
      <trkpt lat="50.10849" lon="2.25307">
        <ele>143.37</ele>
        <time>2022-05-11T14:16:09Z</time>
      </trkpt>
      <trkpt lat="50.10869" lon="2.25304">
        <ele>141.93</ele>
        <time>2022-05-11T14:16:23Z</time>
      </trkpt>
      <trkpt lat="50.1088" lon="2.25307">
        <ele>141.93</ele>
        <time>2022-05-11T14:16:33Z</time>
      </trkpt>
      <trkpt lat="50.10882" lon="2.25314">
        <ele>141.93</ele>
        <time>2022-05-11T14:16:37Z</time>
      </trkpt>
      <trkpt lat="50.10883" lon="2.25321">
        <ele>141.45</ele>
        <time>2022-05-11T14:16:41Z</time>
      </trkpt>
      <trkpt lat="50.10885" lon="2.25349">
        <ele>140.01</ele>
        <time>2022-05-11T14:16:56Z</time>
      </trkpt>
      <trkpt lat="50.10885" lon="2.25372">
        <ele>139.05</ele>
        <time>2022-05-11T14:17:08Z</time>
      </trkpt>
      <trkpt lat="50.10884" lon="2.25399">
        <ele>137.61</ele>
        <time>2022-05-11T14:17:21Z</time>
      </trkpt>
      <trkpt lat="50.10884" lon="2.25425">
        <ele>138.09</ele>
        <time>2022-05-11T14:17:33Z</time>
      </trkpt>
      <trkpt lat="50.10885" lon="2.2545">
        <ele>139.05</ele>
        <time>2022-05-11T14:17:45Z</time>
      </trkpt>
      <trkpt lat="50.10885" lon="2.25453">
        <ele>139.05</ele>
        <time>2022-05-11T14:17:47Z</time>
      </trkpt>
      <trkpt lat="50.10886" lon="2.25461">
        <ele>139.05</ele>
        <time>2022-05-11T14:17:51Z</time>
      </trkpt>
      <trkpt lat="50.10886" lon="2.25465">
        <ele>138.57</ele>
        <time>2022-05-11T14:17:53Z</time>
      </trkpt>
      <trkpt lat="50.10887" lon="2.25487">
        <ele>137.61</ele>
        <time>2022-05-11T14:18:04Z</time>
      </trkpt>
      <trkpt lat="50.10886" lon="2.25518">
        <ele>138.09</ele>
        <time>2022-05-11T14:18:18Z</time>
      </trkpt>
      <trkpt lat="50.10885" lon="2.25528">
        <ele>138.09</ele>
        <time>2022-05-11T14:18:23Z</time>
      </trkpt>
      <trkpt lat="50.10885" lon="2.25554">
        <ele>144.34</ele>
        <time>2022-05-11T14:18:36Z</time>
      </trkpt>
      <trkpt lat="50.10885" lon="2.25568">
        <ele>146.26</ele>
        <time>2022-05-11T14:18:44Z</time>
      </trkpt>
      <trkpt lat="50.10886" lon="2.25574">
        <ele>146.26</ele>
        <time>2022-05-11T14:18:47Z</time>
      </trkpt>
      <trkpt lat="50.10885" lon="2.25582">
        <ele>146.26</ele>
        <time>2022-05-11T14:18:51Z</time>
      </trkpt>
      <trkpt lat="50.10884" lon="2.25612">
        <ele>146.74</ele>
        <time>2022-05-11T14:19:05Z</time>
      </trkpt>
      <trkpt lat="50.10885" lon="2.25634">
        <ele>147.22</ele>
        <time>2022-05-11T14:19:18Z</time>
      </trkpt>
      <trkpt lat="50.10895" lon="2.25643">
        <ele>149.14</ele>
        <time>2022-05-11T14:19:27Z</time>
      </trkpt>
      <trkpt lat="50.10908" lon="2.25647">
        <ele>150.1</ele>
        <time>2022-05-11T14:19:38Z</time>
      </trkpt>
      <trkpt lat="50.10914" lon="2.25652">
        <ele>150.58</ele>
        <time>2022-05-11T14:19:43Z</time>
      </trkpt>
      <trkpt lat="50.10928" lon="2.25658">
        <ele>152.03</ele>
        <time>2022-05-11T14:19:55Z</time>
      </trkpt>
      <trkpt lat="50.10937" lon="2.25669">
        <ele>151.54</ele>
        <time>2022-05-11T14:20:06Z</time>
      </trkpt>
      <trkpt lat="50.10954" lon="2.25659">
        <ele>150.1</ele>
        <time>2022-05-11T14:20:22Z</time>
      </trkpt>
      <trkpt lat="50.10975" lon="2.2565">
        <ele>149.62</ele>
        <time>2022-05-11T14:20:39Z</time>
      </trkpt>
      <trkpt lat="50.10992" lon="2.25641">
        <ele>149.62</ele>
        <time>2022-05-11T14:20:53Z</time>
      </trkpt>
      <trkpt lat="50.1101" lon="2.25632">
        <ele>149.14</ele>
        <time>2022-05-11T14:21:08Z</time>
      </trkpt>
      <trkpt lat="50.11029" lon="2.25619">
        <ele>149.62</ele>
        <time>2022-05-11T14:21:23Z</time>
      </trkpt>
      <trkpt lat="50.11047" lon="2.25607">
        <ele>148.18</ele>
        <time>2022-05-11T14:21:38Z</time>
      </trkpt>
      <trkpt lat="50.11066" lon="2.25592">
        <ele>147.22</ele>
        <time>2022-05-11T14:21:55Z</time>
      </trkpt>
      <trkpt lat="50.11081" lon="2.25583">
        <ele>147.22</ele>
        <time>2022-05-11T14:22:07Z</time>
      </trkpt>
      <trkpt lat="50.111" lon="2.2557">
        <ele>146.74</ele>
        <time>2022-05-11T14:22:23Z</time>
      </trkpt>
      <trkpt lat="50.11119" lon="2.25557">
        <ele>145.78</ele>
        <time>2022-05-11T14:22:39Z</time>
      </trkpt>
      <trkpt lat="50.11138" lon="2.25543">
        <ele>145.78</ele>
        <time>2022-05-11T14:22:55Z</time>
      </trkpt>
      <trkpt lat="50.11157" lon="2.25529">
        <ele>147.22</ele>
        <time>2022-05-11T14:23:10Z</time>
      </trkpt>
      <trkpt lat="50.11175" lon="2.25515">
        <ele>147.7</ele>
        <time>2022-05-11T14:23:25Z</time>
      </trkpt>
      <trkpt lat="50.11193" lon="2.25501">
        <ele>147.22</ele>
        <time>2022-05-11T14:23:39Z</time>
      </trkpt>
      <trkpt lat="50.11209" lon="2.25489">
        <ele>145.78</ele>
        <time>2022-05-11T14:23:53Z</time>
      </trkpt>
      <trkpt lat="50.11227" lon="2.25474">
        <ele>145.78</ele>
        <time>2022-05-11T14:24:09Z</time>
      </trkpt>
      <trkpt lat="50.11247" lon="2.25458">
        <ele>145.3</ele>
        <time>2022-05-11T14:24:25Z</time>
      </trkpt>
      <trkpt lat="50.11264" lon="2.25444">
        <ele>146.26</ele>
        <time>2022-05-11T14:24:39Z</time>
      </trkpt>
      <trkpt lat="50.11282" lon="2.25427">
        <ele>145.78</ele>
        <time>2022-05-11T14:24:55Z</time>
      </trkpt>
      <trkpt lat="50.113" lon="2.25422">
        <ele>145.78</ele>
        <time>2022-05-11T14:25:10Z</time>
      </trkpt>
      <trkpt lat="50.11315" lon="2.25418">
        <ele>146.26</ele>
        <time>2022-05-11T14:25:25Z</time>
      </trkpt>
      <trkpt lat="50.11317" lon="2.25418">
        <ele>148.18</ele>
        <time>2022-05-11T14:25:41Z</time>
      </trkpt>
      <trkpt lat="50.11318" lon="2.25418">
        <ele>148.66</ele>
        <time>2022-05-11T14:25:58Z</time>
      </trkpt>
      <trkpt lat="50.11318" lon="2.25417">
        <ele>148.18</ele>
        <time>2022-05-11T14:26:17Z</time>
      </trkpt>
      <trkpt lat="50.11318" lon="2.25417">
        <ele>148.18</ele>
        <time>2022-05-11T14:26:39Z</time>
      </trkpt>
      <trkpt lat="50.11323" lon="2.25415">
        <ele>147.7</ele>
        <time>2022-05-11T14:26:50Z</time>
      </trkpt>
      <trkpt lat="50.11327" lon="2.25415">
        <ele>147.7</ele>
        <time>2022-05-11T14:27:07Z</time>
      </trkpt>
      <trkpt lat="50.11341" lon="2.25411">
        <ele>147.7</ele>
        <time>2022-05-11T14:27:18Z</time>
      </trkpt>
      <trkpt lat="50.11356" lon="2.25408">
        <ele>147.7</ele>
        <time>2022-05-11T14:27:30Z</time>
      </trkpt>
      <trkpt lat="50.11372" lon="2.25404">
        <ele>147.22</ele>
        <time>2022-05-11T14:27:42Z</time>
      </trkpt>
      <trkpt lat="50.11386" lon="2.25402">
        <ele>146.74</ele>
        <time>2022-05-11T14:27:52Z</time>
      </trkpt>
      <trkpt lat="50.11396" lon="2.25399">
        <ele>147.22</ele>
        <time>2022-05-11T14:28:02Z</time>
      </trkpt>
      <trkpt lat="50.11414" lon="2.25395">
        <ele>147.7</ele>
        <time>2022-05-11T14:28:16Z</time>
      </trkpt>
      <trkpt lat="50.11436" lon="2.2539">
        <ele>147.7</ele>
        <time>2022-05-11T14:28:32Z</time>
      </trkpt>
      <trkpt lat="50.11457" lon="2.25383">
        <ele>146.74</ele>
        <time>2022-05-11T14:28:48Z</time>
      </trkpt>
      <trkpt lat="50.11473" lon="2.25378">
        <ele>146.74</ele>
        <time>2022-05-11T14:29:01Z</time>
      </trkpt>
      <trkpt lat="50.11488" lon="2.25374">
        <ele>145.3</ele>
        <time>2022-05-11T14:29:14Z</time>
      </trkpt>
      <trkpt lat="50.11507" lon="2.2537">
        <ele>144.34</ele>
        <time>2022-05-11T14:29:29Z</time>
      </trkpt>
      <trkpt lat="50.11512" lon="2.25367">
        <ele>144.82</ele>
        <time>2022-05-11T14:29:33Z</time>
      </trkpt>
      <trkpt lat="50.1153" lon="2.25362">
        <ele>145.3</ele>
        <time>2022-05-11T14:29:47Z</time>
      </trkpt>
      <trkpt lat="50.11552" lon="2.25356">
        <ele>144.82</ele>
        <time>2022-05-11T14:30:04Z</time>
      </trkpt>
      <trkpt lat="50.11571" lon="2.2535">
        <ele>145.78</ele>
        <time>2022-05-11T14:30:19Z</time>
      </trkpt>
      <trkpt lat="50.11591" lon="2.25353">
        <ele>148.66</ele>
        <time>2022-05-11T14:30:33Z</time>
      </trkpt>
      <trkpt lat="50.1161" lon="2.2536">
        <ele>149.14</ele>
        <time>2022-05-11T14:30:46Z</time>
      </trkpt>
      <trkpt lat="50.11628" lon="2.25365">
        <ele>149.62</ele>
        <time>2022-05-11T14:31:00Z</time>
      </trkpt>
      <trkpt lat="50.11645" lon="2.2537">
        <ele>150.58</ele>
        <time>2022-05-11T14:31:13Z</time>
      </trkpt>
      <trkpt lat="50.11667" lon="2.25377">
        <ele>152.03</ele>
        <time>2022-05-11T14:31:29Z</time>
      </trkpt>
      <trkpt lat="50.11675" lon="2.25379">
        <ele>152.03</ele>
        <time>2022-05-11T14:31:42Z</time>
      </trkpt>
      <trkpt lat="50.1168" lon="2.25381">
        <ele>152.03</ele>
        <time>2022-05-11T14:31:52Z</time>
      </trkpt>
      <trkpt lat="50.11701" lon="2.2539">
        <ele>152.03</ele>
        <time>2022-05-11T14:32:07Z</time>
      </trkpt>
      <trkpt lat="50.11722" lon="2.25401">
        <ele>152.51</ele>
        <time>2022-05-11T14:32:23Z</time>
      </trkpt>
      <trkpt lat="50.11737" lon="2.25412">
        <ele>152.03</ele>
        <time>2022-05-11T14:32:36Z</time>
      </trkpt>
      <trkpt lat="50.11747" lon="2.25419">
        <ele>152.51</ele>
        <time>2022-05-11T14:32:44Z</time>
      </trkpt>
      <trkpt lat="50.11755" lon="2.25428">
        <ele>152.99</ele>
        <time>2022-05-11T14:32:56Z</time>
      </trkpt>
      <trkpt lat="50.11756" lon="2.25428">
        <ele>154.91</ele>
        <time>2022-05-11T14:33:14Z</time>
      </trkpt>
      <trkpt lat="50.11757" lon="2.25429">
        <ele>155.39</ele>
        <time>2022-05-11T14:33:29Z</time>
      </trkpt>
      <trkpt lat="50.11756" lon="2.2543">
        <ele>154.91</ele>
        <time>2022-05-11T14:33:48Z</time>
      </trkpt>
      <trkpt lat="50.11744" lon="2.25424">
        <ele>152.51</ele>
        <time>2022-05-11T14:34:00Z</time>
      </trkpt>
      <trkpt lat="50.11731" lon="2.25413">
        <ele>150.1</ele>
        <time>2022-05-11T14:34:15Z</time>
      </trkpt>
      <trkpt lat="50.11728" lon="2.2541">
        <ele>149.62</ele>
        <time>2022-05-11T14:34:20Z</time>
      </trkpt>
      <trkpt lat="50.11714" lon="2.25402">
        <ele>149.14</ele>
        <time>2022-05-11T14:34:33Z</time>
      </trkpt>
      <trkpt lat="50.11699" lon="2.25393">
        <ele>149.14</ele>
        <time>2022-05-11T14:34:47Z</time>
      </trkpt>
      <trkpt lat="50.11684" lon="2.25386">
        <ele>148.18</ele>
        <time>2022-05-11T14:35:00Z</time>
      </trkpt>
      <trkpt lat="50.11671" lon="2.2538">
        <ele>148.18</ele>
        <time>2022-05-11T14:35:14Z</time>
      </trkpt>
      <trkpt lat="50.1167" lon="2.25378">
        <ele>148.66</ele>
        <time>2022-05-11T14:35:24Z</time>
      </trkpt>
      <trkpt lat="50.11669" lon="2.25377">
        <ele>149.14</ele>
        <time>2022-05-11T14:35:39Z</time>
      </trkpt>
      <trkpt lat="50.11669" lon="2.25376">
        <ele>149.62</ele>
        <time>2022-05-11T14:35:58Z</time>
      </trkpt>
      <trkpt lat="50.1167" lon="2.25377">
        <ele>150.1</ele>
        <time>2022-05-11T14:36:19Z</time>
      </trkpt>
      <trkpt lat="50.1167" lon="2.25376">
        <ele>150.1</ele>
        <time>2022-05-11T14:36:36Z</time>
      </trkpt>
      <trkpt lat="50.11669" lon="2.25376">
        <ele>150.1</ele>
        <time>2022-05-11T14:36:56Z</time>
      </trkpt>
      <trkpt lat="50.11669" lon="2.25376">
        <ele>150.1</ele>
        <time>2022-05-11T14:37:21Z</time>
      </trkpt>
      <trkpt lat="50.11669" lon="2.25376">
        <ele>150.1</ele>
        <time>2022-05-11T14:37:43Z</time>
      </trkpt>
      <trkpt lat="50.11669" lon="2.25375">
        <ele>150.1</ele>
        <time>2022-05-11T14:38:05Z</time>
      </trkpt>
      <trkpt lat="50.11669" lon="2.25373">
        <ele>149.14</ele>
        <time>2022-05-11T14:38:18Z</time>
      </trkpt>
      <trkpt lat="50.1167" lon="2.2537">
        <ele>148.18</ele>
        <time>2022-05-11T14:38:25Z</time>
      </trkpt>
      <trkpt lat="50.11671" lon="2.2536">
        <ele>145.3</ele>
        <time>2022-05-11T14:38:35Z</time>
      </trkpt>
      <trkpt lat="50.11672" lon="2.25351">
        <ele>142.89</ele>
        <time>2022-05-11T14:38:46Z</time>
      </trkpt>
      <trkpt lat="50.11673" lon="2.25345">
        <ele>140.49</ele>
        <time>2022-05-11T14:38:58Z</time>
      </trkpt>
      <trkpt lat="50.11673" lon="2.25343">
        <ele>140.97</ele>
        <time>2022-05-11T14:39:10Z</time>
      </trkpt>
      <trkpt lat="50.11674" lon="2.25341">
        <ele>140.97</ele>
        <time>2022-05-11T14:39:28Z</time>
      </trkpt>
      <trkpt lat="50.11674" lon="2.25333">
        <ele>142.41</ele>
        <time>2022-05-11T14:39:39Z</time>
      </trkpt>
      <trkpt lat="50.11675" lon="2.25321">
        <ele>143.37</ele>
        <time>2022-05-11T14:39:50Z</time>
      </trkpt>
      <trkpt lat="50.11674" lon="2.25319">
        <ele>143.85</ele>
        <time>2022-05-11T14:39:51Z</time>
      </trkpt>
      <trkpt lat="50.11674" lon="2.25311">
        <ele>145.78</ele>
        <time>2022-05-11T14:40:02Z</time>
      </trkpt>
      <trkpt lat="50.11674" lon="2.25309">
        <ele>146.26</ele>
        <time>2022-05-11T14:40:05Z</time>
      </trkpt>
      <trkpt lat="50.11679" lon="2.25297">
        <ele>146.74</ele>
        <time>2022-05-11T14:40:16Z</time>
      </trkpt>
      <trkpt lat="50.1168" lon="2.25293">
        <ele>146.26</ele>
        <time>2022-05-11T14:40:27Z</time>
      </trkpt>
      <trkpt lat="50.11679" lon="2.25293">
        <ele>146.26</ele>
        <time>2022-05-11T14:40:38Z</time>
      </trkpt>
      <trkpt lat="50.11679" lon="2.25292">
        <ele>146.26</ele>
        <time>2022-05-11T14:40:58Z</time>
      </trkpt>
      <trkpt lat="50.1168" lon="2.25292">
        <ele>146.74</ele>
        <time>2022-05-11T14:41:11Z</time>
      </trkpt>
      <trkpt lat="50.11681" lon="2.25295">
        <ele>147.22</ele>
        <time>2022-05-11T14:41:21Z</time>
      </trkpt>
      <trkpt lat="50.1168" lon="2.25294">
        <ele>147.22</ele>
        <time>2022-05-11T14:41:32Z</time>
      </trkpt>
      <trkpt lat="50.1168" lon="2.25293">
        <ele>147.22</ele>
        <time>2022-05-11T14:41:50Z</time>
      </trkpt>
      <trkpt lat="50.11679" lon="2.25293">
        <ele>147.7</ele>
        <time>2022-05-11T14:42:08Z</time>
      </trkpt>
      <trkpt lat="50.11683" lon="2.25292">
        <ele>148.18</ele>
        <time>2022-05-11T14:42:32Z</time>
      </trkpt>
      <trkpt lat="50.11685" lon="2.25292">
        <ele>147.7</ele>
        <time>2022-05-11T14:42:35Z</time>
      </trkpt>
      <trkpt lat="50.117" lon="2.25288">
        <ele>147.22</ele>
        <time>2022-05-11T14:42:49Z</time>
      </trkpt>
      <trkpt lat="50.11711" lon="2.25282">
        <ele>147.22</ele>
        <time>2022-05-11T14:43:02Z</time>
      </trkpt>
      <trkpt lat="50.11726" lon="2.25274">
        <ele>147.22</ele>
        <time>2022-05-11T14:43:16Z</time>
      </trkpt>
      <trkpt lat="50.11737" lon="2.2527">
        <ele>147.22</ele>
        <time>2022-05-11T14:43:30Z</time>
      </trkpt>
      <trkpt lat="50.11742" lon="2.25269">
        <ele>146.74</ele>
        <time>2022-05-11T14:43:40Z</time>
      </trkpt>
      <trkpt lat="50.11754" lon="2.25263">
        <ele>147.22</ele>
        <time>2022-05-11T14:43:53Z</time>
      </trkpt>
      <trkpt lat="50.11767" lon="2.25257">
        <ele>147.22</ele>
        <time>2022-05-11T14:44:07Z</time>
      </trkpt>
      <trkpt lat="50.11781" lon="2.25251">
        <ele>147.22</ele>
        <time>2022-05-11T14:44:21Z</time>
      </trkpt>
      <trkpt lat="50.11792" lon="2.25242">
        <ele>146.74</ele>
        <time>2022-05-11T14:44:35Z</time>
      </trkpt>
      <trkpt lat="50.11803" lon="2.25237">
        <ele>148.66</ele>
        <time>2022-05-11T14:44:48Z</time>
      </trkpt>
      <trkpt lat="50.11818" lon="2.25231">
        <ele>150.1</ele>
        <time>2022-05-11T14:45:02Z</time>
      </trkpt>
      <trkpt lat="50.11822" lon="2.25223">
        <ele>151.54</ele>
        <time>2022-05-11T14:45:12Z</time>
      </trkpt>
      <trkpt lat="50.11826" lon="2.2522">
        <ele>151.06</ele>
        <time>2022-05-11T14:45:24Z</time>
      </trkpt>
      <trkpt lat="50.11826" lon="2.25213">
        <ele>151.06</ele>
        <time>2022-05-11T14:45:32Z</time>
      </trkpt>
      <trkpt lat="50.11826" lon="2.25201">
        <ele>151.06</ele>
        <time>2022-05-11T14:45:39Z</time>
      </trkpt>
      <trkpt lat="50.11827" lon="2.25179">
        <ele>151.54</ele>
        <time>2022-05-11T14:45:51Z</time>
      </trkpt>
      <trkpt lat="50.11825" lon="2.25168">
        <ele>150.58</ele>
        <time>2022-05-11T14:46:03Z</time>
      </trkpt>
      <trkpt lat="50.11824" lon="2.25169">
        <ele>151.54</ele>
        <time>2022-05-11T14:46:16Z</time>
      </trkpt>
      <trkpt lat="50.11825" lon="2.25169">
        <ele>152.03</ele>
        <time>2022-05-11T14:46:43Z</time>
      </trkpt>
      <trkpt lat="50.11826" lon="2.25169">
        <ele>152.51</ele>
        <time>2022-05-11T14:46:58Z</time>
      </trkpt>
      <trkpt lat="50.11829" lon="2.25171">
        <ele>152.99</ele>
        <time>2022-05-11T14:47:14Z</time>
      </trkpt>
      <trkpt lat="50.11831" lon="2.25195">
        <ele>152.99</ele>
        <time>2022-05-11T14:47:28Z</time>
      </trkpt>
      <trkpt lat="50.11831" lon="2.25203">
        <ele>152.51</ele>
        <time>2022-05-11T14:47:33Z</time>
      </trkpt>
      <trkpt lat="50.11831" lon="2.25217">
        <ele>152.51</ele>
        <time>2022-05-11T14:47:44Z</time>
      </trkpt>
      <trkpt lat="50.11829" lon="2.25219">
        <ele>152.99</ele>
        <time>2022-05-11T14:48:00Z</time>
      </trkpt>
      <trkpt lat="50.11829" lon="2.25219">
        <ele>152.51</ele>
        <time>2022-05-11T14:48:21Z</time>
      </trkpt>
      <trkpt lat="50.11828" lon="2.25219">
        <ele>152.51</ele>
        <time>2022-05-11T14:48:40Z</time>
      </trkpt>
      <trkpt lat="50.11828" lon="2.25216">
        <ele>152.03</ele>
        <time>2022-05-11T14:48:54Z</time>
      </trkpt>
      <trkpt lat="50.11828" lon="2.25214">
        <ele>152.03</ele>
        <time>2022-05-11T14:48:55Z</time>
      </trkpt>
      <trkpt lat="50.11827" lon="2.25187">
        <ele>151.06</ele>
        <time>2022-05-11T14:49:08Z</time>
      </trkpt>
      <trkpt lat="50.11828" lon="2.25157">
        <ele>151.54</ele>
        <time>2022-05-11T14:49:23Z</time>
      </trkpt>
      <trkpt lat="50.11831" lon="2.25125">
        <ele>152.03</ele>
        <time>2022-05-11T14:49:39Z</time>
      </trkpt>
      <trkpt lat="50.11833" lon="2.25093">
        <ele>153.47</ele>
        <time>2022-05-11T14:49:55Z</time>
      </trkpt>
      <trkpt lat="50.11832" lon="2.25063">
        <ele>153.47</ele>
        <time>2022-05-11T14:50:10Z</time>
      </trkpt>
      <trkpt lat="50.11831" lon="2.25031">
        <ele>153.47</ele>
        <time>2022-05-11T14:50:26Z</time>
      </trkpt>
      <trkpt lat="50.11831" lon="2.24998">
        <ele>153.47</ele>
        <time>2022-05-11T14:50:42Z</time>
      </trkpt>
      <trkpt lat="50.11842" lon="2.24981">
        <ele>152.99</ele>
        <time>2022-05-11T14:50:54Z</time>
      </trkpt>
      <trkpt lat="50.11863" lon="2.24974">
        <ele>152.51</ele>
        <time>2022-05-11T14:51:10Z</time>
      </trkpt>
      <trkpt lat="50.11881" lon="2.24966">
        <ele>152.03</ele>
        <time>2022-05-11T14:51:24Z</time>
      </trkpt>
      <trkpt lat="50.11904" lon="2.24958">
        <ele>151.06</ele>
        <time>2022-05-11T14:51:42Z</time>
      </trkpt>
      <trkpt lat="50.11922" lon="2.2495">
        <ele>150.58</ele>
        <time>2022-05-11T14:51:56Z</time>
      </trkpt>
      <trkpt lat="50.11943" lon="2.24943">
        <ele>150.1</ele>
        <time>2022-05-11T14:52:12Z</time>
      </trkpt>
      <trkpt lat="50.11958" lon="2.24936">
        <ele>149.14</ele>
        <time>2022-05-11T14:52:24Z</time>
      </trkpt>
      <trkpt lat="50.11957" lon="2.24919">
        <ele>149.14</ele>
        <time>2022-05-11T14:52:33Z</time>
      </trkpt>
      <trkpt lat="50.11946" lon="2.24894">
        <ele>149.14</ele>
        <time>2022-05-11T14:52:48Z</time>
      </trkpt>
      <trkpt lat="50.11934" lon="2.24867">
        <ele>149.62</ele>
        <time>2022-05-11T14:53:04Z</time>
      </trkpt>
      <trkpt lat="50.11922" lon="2.24843">
        <ele>149.62</ele>
        <time>2022-05-11T14:53:19Z</time>
      </trkpt>
      <trkpt lat="50.11909" lon="2.24815">
        <ele>150.1</ele>
        <time>2022-05-11T14:53:36Z</time>
      </trkpt>
      <trkpt lat="50.11897" lon="2.2479">
        <ele>150.58</ele>
        <time>2022-05-11T14:53:52Z</time>
      </trkpt>
      <trkpt lat="50.11886" lon="2.24765">
        <ele>150.58</ele>
        <time>2022-05-11T14:54:08Z</time>
      </trkpt>
      <trkpt lat="50.11874" lon="2.2474">
        <ele>150.58</ele>
        <time>2022-05-11T14:54:23Z</time>
      </trkpt>
      <trkpt lat="50.11862" lon="2.24716">
        <ele>151.54</ele>
        <time>2022-05-11T14:54:38Z</time>
      </trkpt>
      <trkpt lat="50.11848" lon="2.24689">
        <ele>152.03</ele>
        <time>2022-05-11T14:54:55Z</time>
      </trkpt>
      <trkpt lat="50.11835" lon="2.24664">
        <ele>152.51</ele>
        <time>2022-05-11T14:55:11Z</time>
      </trkpt>
      <trkpt lat="50.11822" lon="2.24636">
        <ele>151.06</ele>
        <time>2022-05-11T14:55:28Z</time>
      </trkpt>
      <trkpt lat="50.11811" lon="2.24612">
        <ele>152.03</ele>
        <time>2022-05-11T14:55:43Z</time>
      </trkpt>
      <trkpt lat="50.118" lon="2.24589">
        <ele>152.03</ele>
        <time>2022-05-11T14:55:57Z</time>
      </trkpt>
      <trkpt lat="50.11789" lon="2.24565">
        <ele>152.51</ele>
        <time>2022-05-11T14:56:12Z</time>
      </trkpt>
      <trkpt lat="50.11777" lon="2.2454">
        <ele>152.51</ele>
        <time>2022-05-11T14:56:27Z</time>
      </trkpt>
      <trkpt lat="50.11766" lon="2.24519">
        <ele>152.03</ele>
        <time>2022-05-11T14:56:41Z</time>
      </trkpt>
      <trkpt lat="50.11754" lon="2.24492">
        <ele>152.03</ele>
        <time>2022-05-11T14:56:57Z</time>
      </trkpt>
      <trkpt lat="50.11742" lon="2.24468">
        <ele>152.03</ele>
        <time>2022-05-11T14:57:11Z</time>
      </trkpt>
      <trkpt lat="50.11731" lon="2.24444">
        <ele>151.54</ele>
        <time>2022-05-11T14:57:26Z</time>
      </trkpt>
      <trkpt lat="50.11718" lon="2.24415">
        <ele>151.54</ele>
        <time>2022-05-11T14:57:43Z</time>
      </trkpt>
      <trkpt lat="50.11704" lon="2.24386">
        <ele>152.03</ele>
        <time>2022-05-11T14:58:01Z</time>
      </trkpt>
      <trkpt lat="50.1169" lon="2.2436">
        <ele>152.51</ele>
        <time>2022-05-11T14:58:18Z</time>
      </trkpt>
      <trkpt lat="50.11677" lon="2.24347">
        <ele>151.54</ele>
        <time>2022-05-11T14:58:31Z</time>
      </trkpt>
      <trkpt lat="50.11659" lon="2.24326">
        <ele>151.06</ele>
        <time>2022-05-11T14:58:47Z</time>
      </trkpt>
      <trkpt lat="50.11644" lon="2.24307">
        <ele>151.06</ele>
        <time>2022-05-11T14:59:02Z</time>
      </trkpt>
      <trkpt lat="50.11625" lon="2.24285">
        <ele>150.58</ele>
        <time>2022-05-11T14:59:19Z</time>
      </trkpt>
      <trkpt lat="50.11615" lon="2.24261">
        <ele>150.1</ele>
        <time>2022-05-11T14:59:33Z</time>
      </trkpt>
      <trkpt lat="50.11616" lon="2.24236">
        <ele>149.62</ele>
        <time>2022-05-11T14:59:45Z</time>
      </trkpt>
      <trkpt lat="50.11616" lon="2.24208">
        <ele>147.22</ele>
        <time>2022-05-11T14:59:59Z</time>
      </trkpt>
      <trkpt lat="50.11617" lon="2.24205">
        <ele>147.22</ele>
        <time>2022-05-11T15:00:01Z</time>
      </trkpt>
      <trkpt lat="50.11617" lon="2.24184">
        <ele>147.22</ele>
        <time>2022-05-11T15:00:11Z</time>
      </trkpt>
      <trkpt lat="50.1162" lon="2.24159">
        <ele>145.3</ele>
        <time>2022-05-11T15:00:25Z</time>
      </trkpt>
      <trkpt lat="50.11624" lon="2.24136">
        <ele>143.85</ele>
        <time>2022-05-11T15:00:38Z</time>
      </trkpt>
      <trkpt lat="50.11628" lon="2.24113">
        <ele>142.89</ele>
        <time>2022-05-11T15:00:50Z</time>
      </trkpt>
      <trkpt lat="50.11632" lon="2.24082">
        <ele>141.45</ele>
        <time>2022-05-11T15:01:06Z</time>
      </trkpt>
      <trkpt lat="50.11637" lon="2.24059">
        <ele>139.53</ele>
        <time>2022-05-11T15:01:19Z</time>
      </trkpt>
      <trkpt lat="50.11647" lon="2.24033">
        <ele>136.16</ele>
        <time>2022-05-11T15:01:35Z</time>
      </trkpt>
      <trkpt lat="50.11654" lon="2.24015">
        <ele>131.84</ele>
        <time>2022-05-11T15:01:48Z</time>
      </trkpt>
      <trkpt lat="50.11659" lon="2.23996">
        <ele>127.99</ele>
        <time>2022-05-11T15:02:01Z</time>
      </trkpt>
      <trkpt lat="50.11666" lon="2.23979">
        <ele>122.22</ele>
        <time>2022-05-11T15:02:13Z</time>
      </trkpt>
      <trkpt lat="50.11674" lon="2.23962">
        <ele>116.94</ele>
        <time>2022-05-11T15:02:24Z</time>
      </trkpt>
      <trkpt lat="50.11679" lon="2.23937">
        <ele>116.46</ele>
        <time>2022-05-11T15:02:37Z</time>
      </trkpt>
      <trkpt lat="50.11679" lon="2.23928">
        <ele>116.46</ele>
        <time>2022-05-11T15:02:41Z</time>
      </trkpt>
      <trkpt lat="50.11681" lon="2.23904">
        <ele>117.9</ele>
        <time>2022-05-11T15:02:53Z</time>
      </trkpt>
      <trkpt lat="50.11682" lon="2.23883">
        <ele>116.94</ele>
        <time>2022-05-11T15:03:04Z</time>
      </trkpt>
      <trkpt lat="50.1168" lon="2.2386">
        <ele>118.38</ele>
        <time>2022-05-11T15:03:14Z</time>
      </trkpt>
      <trkpt lat="50.1168" lon="2.23855">
        <ele>119.34</ele>
        <time>2022-05-11T15:03:16Z</time>
      </trkpt>
      <trkpt lat="50.11682" lon="2.23836">
        <ele>119.82</ele>
        <time>2022-05-11T15:03:28Z</time>
      </trkpt>
      <trkpt lat="50.11682" lon="2.23811">
        <ele>124.63</ele>
        <time>2022-05-11T15:03:40Z</time>
      </trkpt>
      <trkpt lat="50.11681" lon="2.2379">
        <ele>127.99</ele>
        <time>2022-05-11T15:03:52Z</time>
      </trkpt>
      <trkpt lat="50.11682" lon="2.23768">
        <ele>130.4</ele>
        <time>2022-05-11T15:04:04Z</time>
      </trkpt>
      <trkpt lat="50.11684" lon="2.23739">
        <ele>131.36</ele>
        <time>2022-05-11T15:04:18Z</time>
      </trkpt>
      <trkpt lat="50.11686" lon="2.23717">
        <ele>132.32</ele>
        <time>2022-05-11T15:04:29Z</time>
      </trkpt>
      <trkpt lat="50.11696" lon="2.23685">
        <ele>129.43</ele>
        <time>2022-05-11T15:04:46Z</time>
      </trkpt>
      <trkpt lat="50.11701" lon="2.23664">
        <ele>127.99</ele>
        <time>2022-05-11T15:04:58Z</time>
      </trkpt>
      <trkpt lat="50.11708" lon="2.23644">
        <ele>127.99</ele>
        <time>2022-05-11T15:05:10Z</time>
      </trkpt>
      <trkpt lat="50.11717" lon="2.23619">
        <ele>127.99</ele>
        <time>2022-05-11T15:05:24Z</time>
      </trkpt>
      <trkpt lat="50.11724" lon="2.23601">
        <ele>127.51</ele>
        <time>2022-05-11T15:05:36Z</time>
      </trkpt>
      <trkpt lat="50.11729" lon="2.23585">
        <ele>127.03</ele>
        <time>2022-05-11T15:05:47Z</time>
      </trkpt>
      <trkpt lat="50.11738" lon="2.23564">
        <ele>126.55</ele>
        <time>2022-05-11T15:06:01Z</time>
      </trkpt>
      <trkpt lat="50.11747" lon="2.23543">
        <ele>126.55</ele>
        <time>2022-05-11T15:06:15Z</time>
      </trkpt>
      <trkpt lat="50.11756" lon="2.23519">
        <ele>127.03</ele>
        <time>2022-05-11T15:06:28Z</time>
      </trkpt>
      <trkpt lat="50.11762" lon="2.23496">
        <ele>125.11</ele>
        <time>2022-05-11T15:06:41Z</time>
      </trkpt>
      <trkpt lat="50.11771" lon="2.23476">
        <ele>123.67</ele>
        <time>2022-05-11T15:06:53Z</time>
      </trkpt>
      <trkpt lat="50.11776" lon="2.23459">
        <ele>122.71</ele>
        <time>2022-05-11T15:07:02Z</time>
      </trkpt>
      <trkpt lat="50.1178" lon="2.23445">
        <ele>121.26</ele>
        <time>2022-05-11T15:07:10Z</time>
      </trkpt>
      <trkpt lat="50.11776" lon="2.23431">
        <ele>121.74</ele>
        <time>2022-05-11T15:07:18Z</time>
      </trkpt>
      <trkpt lat="50.11771" lon="2.23423">
        <ele>122.71</ele>
        <time>2022-05-11T15:07:25Z</time>
      </trkpt>
      <trkpt lat="50.11769" lon="2.23412">
        <ele>126.55</ele>
        <time>2022-05-11T15:07:31Z</time>
      </trkpt>
      <trkpt lat="50.11768" lon="2.23407">
        <ele>127.03</ele>
        <time>2022-05-11T15:07:33Z</time>
      </trkpt>
      <trkpt lat="50.11767" lon="2.23402">
        <ele>127.51</ele>
        <time>2022-05-11T15:07:36Z</time>
      </trkpt>
      <trkpt lat="50.11764" lon="2.23372">
        <ele>130.4</ele>
        <time>2022-05-11T15:07:51Z</time>
      </trkpt>
      <trkpt lat="50.11761" lon="2.23341">
        <ele>135.2</ele>
        <time>2022-05-11T15:08:05Z</time>
      </trkpt>
      <trkpt lat="50.11767" lon="2.23325">
        <ele>136.16</ele>
        <time>2022-05-11T15:08:18Z</time>
      </trkpt>
      <trkpt lat="50.11769" lon="2.23319">
        <ele>137.61</ele>
        <time>2022-05-11T15:08:28Z</time>
      </trkpt>
      <trkpt lat="50.11769" lon="2.23318">
        <ele>139.05</ele>
        <time>2022-05-11T15:08:44Z</time>
      </trkpt>
      <trkpt lat="50.11768" lon="2.23319">
        <ele>139.53</ele>
        <time>2022-05-11T15:09:01Z</time>
      </trkpt>
      <trkpt lat="50.11768" lon="2.23318">
        <ele>140.49</ele>
        <time>2022-05-11T15:09:16Z</time>
      </trkpt>
      <trkpt lat="50.11769" lon="2.2332">
        <ele>140.97</ele>
        <time>2022-05-11T15:09:29Z</time>
      </trkpt>
      <trkpt lat="50.11769" lon="2.23321">
        <ele>141.93</ele>
        <time>2022-05-11T15:09:49Z</time>
      </trkpt>
      <trkpt lat="50.11769" lon="2.2332">
        <ele>142.41</ele>
        <time>2022-05-11T15:09:55Z</time>
      </trkpt>
      <trkpt lat="50.11773" lon="2.23319">
        <ele>141.93</ele>
        <time>2022-05-11T15:10:00Z</time>
      </trkpt>
      <trkpt lat="50.1179" lon="2.23325">
        <ele>142.41</ele>
        <time>2022-05-11T15:10:15Z</time>
      </trkpt>
      <trkpt lat="50.11807" lon="2.23334">
        <ele>142.89</ele>
        <time>2022-05-11T15:10:29Z</time>
      </trkpt>
      <trkpt lat="50.11825" lon="2.23345">
        <ele>143.85</ele>
        <time>2022-05-11T15:10:43Z</time>
      </trkpt>
      <trkpt lat="50.11843" lon="2.23356">
        <ele>143.85</ele>
        <time>2022-05-11T15:10:57Z</time>
      </trkpt>
      <trkpt lat="50.11856" lon="2.23367">
        <ele>142.41</ele>
        <time>2022-05-11T15:11:09Z</time>
      </trkpt>
      <trkpt lat="50.11869" lon="2.2338">
        <ele>143.37</ele>
        <time>2022-05-11T15:11:22Z</time>
      </trkpt>
      <trkpt lat="50.11883" lon="2.23389">
        <ele>145.3</ele>
        <time>2022-05-11T15:11:36Z</time>
      </trkpt>
      <trkpt lat="50.11893" lon="2.2337">
        <ele>147.22</ele>
        <time>2022-05-11T15:11:52Z</time>
      </trkpt>
      <trkpt lat="50.119" lon="2.23358">
        <ele>146.74</ele>
        <time>2022-05-11T15:12:03Z</time>
      </trkpt>
      <trkpt lat="50.11907" lon="2.23343">
        <ele>146.26</ele>
        <time>2022-05-11T15:12:15Z</time>
      </trkpt>
      <trkpt lat="50.11913" lon="2.23331">
        <ele>146.26</ele>
        <time>2022-05-11T15:12:25Z</time>
      </trkpt>
      <trkpt lat="50.11919" lon="2.23322">
        <ele>146.26</ele>
        <time>2022-05-11T15:12:34Z</time>
      </trkpt>
      <trkpt lat="50.11919" lon="2.23321">
        <ele>146.26</ele>
        <time>2022-05-11T15:12:35Z</time>
      </trkpt>
    </trkseg>
  </trk>
</gpx>